| time (UTC) | temp F | wind direction | speed MPH | gust MPH | rain 1hr in | rain 24hr in | rain mn in | humidity % | barometer mb |
| 20260831231206 | 90 | 193 | 2.0 | 4.0 | 0.00 | 0.04 | 0.04 | 71 | 1012.4 |
| 20260831231104 | 90 | 192 | 2.0 | 4.0 | 0.00 | 0.04 | 0.04 | 71 | 1012.4 |
| 20260831231003 | 90 | 195 | 2.0 | 4.0 | 0.00 | 0.04 | 0.04 | 71 | 1012.4 |
| 20260831230904 | 90 | 193 | 2.0 | 5.0 | 0.00 | 0.04 | 0.04 | 71 | 1012.4 |
| 20260831230803 | 90 | 193 | 2.0 | 5.0 | 0.00 | 0.04 | 0.04 | 71 | 1012.4 |
| 20260831230702 | 90 | 193 | 2.0 | 5.0 | 0.00 | 0.04 | 0.04 | 71 | 1012.5 |
| 20260831230602 | 90 | 193 | 2.0 | 5.0 | 0.00 | 0.04 | 0.04 | 71 | 1012.4 |
| 20260831230504 | 90 | 195 | 3.0 | 5.0 | 0.00 | 0.04 | 0.04 | 71 | 1012.4 |
| 20260831230403 | 90 | 195 | 3.0 | 5.0 | 0.00 | 0.04 | 0.04 | 71 | 1012.4 |
| 20260831230303 | 90 | 195 | 3.0 | 5.0 | 0.00 | 0.04 | 0.04 | 71 | 1012.4 |
| 20260831230204 | 90 | 195 | 3.0 | 5.0 | 0.00 | 0.04 | 0.04 | 71 | 1012.4 |
| 20260831230049 | 90 | 195 | 4.0 | 5.0 | 0.00 | 0.04 | 0.04 | 71 | 1012.3 |
| 20260831225944 | 90 | 195 | 3.0 | 5.0 | 0.00 | 0.04 | 0.04 | 71 | 1012.4 |
| 20260831225841 | 90 | 192 | 1.0 | 5.0 | 0.00 | 0.04 | 0.04 | 72 | 1012.4 |
| 20260831225741 | 90 | 192 | 0.0 | 5.0 | 0.00 | 0.04 | 0.04 | 71 | 1012.3 |
| 20260831225635 | 90 | 192 | 1.0 | 5.0 | 0.00 | 0.04 | 0.04 | 72 | 1012.4 |
| 20260831225535 | 90 | 192 | 1.0 | 5.0 | 0.00 | 0.04 | 0.04 | 72 | 1012.3 |
| 20260831225434 | 90 | 192 | 2.0 | 5.0 | 0.00 | 0.04 | 0.04 | 71 | 1012.4 |
| 20260831225332 | 90 | 192 | 2.0 | 5.0 | 0.00 | 0.04 | 0.04 | 71 | 1012.3 |
| 20260831225231 | 90 | 192 | 3.0 | 5.0 | 0.00 | 0.04 | 0.04 | 72 | 1012.4 |
| 20260831225132 | 89 | 199 | 0.0 | 1.0 | 0.00 | 0.04 | 0.04 | 72 | 1012.4 |
| 20260831225015 | 89 | 199 | 0.0 | 1.0 | 0.00 | 0.04 | 0.04 | 72 | 1012.4 |
| 20260831224915 | 89 | 199 | 0.0 | 2.0 | 0.00 | 0.04 | 0.04 | 72 | 1012.4 |
| 20260831224804 | 89 | 200 | 0.0 | 3.0 | 0.00 | 0.04 | 0.04 | 72 | 1012.5 |
| 20260831224704 | 89 | 200 | 0.0 | 3.0 | 0.00 | 0.04 | 0.04 | 72 | 1012.5 |
| 20260831224603 | 89 | 200 | 0.0 | 3.0 | 0.00 | 0.04 | 0.04 | 72 | 1012.5 |
| 20260831224502 | 89 | 200 | 0.0 | 3.0 | 0.00 | 0.04 | 0.04 | 72 | 1012.5 |
| 20260831224403 | 89 | 200 | 0.0 | 3.0 | 0.00 | 0.04 | 0.04 | 72 | 1012.5 |
| 20260831224303 | 89 | 200 | 0.0 | 4.0 | 0.00 | 0.04 | 0.04 | 71 | 1012.5 |
| 20260831224203 | 89 | 200 | 0.0 | 5.0 | 0.00 | 0.04 | 0.04 | 71 | 1012.5 |
| 20260831224102 | 89 | 200 | 1.0 | 5.0 | 0.00 | 0.04 | 0.04 | 71 | 1012.5 |
| 20260831224005 | 89 | 200 | 2.0 | 5.0 | 0.00 | 0.04 | 0.04 | 71 | 1012.5 |
| 20260831223902 | 89 | 200 | 2.0 | 5.0 | 0.00 | 0.04 | 0.04 | 70 | 1012.4 |
| 20260831223803 | 90 | 200 | 1.0 | 5.0 | 0.00 | 0.04 | 0.04 | 71 | 1012.5 |
| 20260831223702 | 90 | 200 | 1.0 | 5.0 | 0.00 | 0.04 | 0.04 | 71 | 1012.4 |
| 20260831223603 | 90 | 200 | 0.0 | 5.0 | 0.00 | 0.04 | 0.04 | 70 | 1012.5 |
| 20260831223503 | 90 | 200 | 1.0 | 5.0 | 0.00 | 0.04 | 0.04 | 70 | 1012.5 |
| 20260831223404 | 90 | 200 | 2.0 | 5.0 | 0.00 | 0.04 | 0.04 | 70 | 1012.5 |
| 20260831223302 | 90 | 200 | 3.0 | 5.0 | 0.00 | 0.04 | 0.04 | 70 | 1012.5 |
| 20260831223204 | 90 | 200 | 3.0 | 4.0 | 0.00 | 0.04 | 0.04 | 70 | 1012.5 |
| 20260831223106 | 90 | 199 | 2.0 | 4.0 | 0.00 | 0.04 | 0.04 | 70 | 1012.5 |
| 20260831223005 | 90 | 197 | 1.0 | 4.0 | 0.00 | 0.04 | 0.04 | 71 | 1012.5 |
| 20260831222902 | 90 | 195 | 0.0 | 4.0 | 0.00 | 0.04 | 0.04 | 70 | 1012.5 |
| 20260831222801 | 90 | 195 | 0.0 | 4.0 | 0.00 | 0.04 | 0.04 | 70 | 1012.5 |
| 20260831222703 | 90 | 195 | 0.0 | 4.0 | 0.00 | 0.04 | 0.04 | 71 | 1012.5 |
| 20260831222602 | 89 | 195 | 0.0 | 4.0 | 0.00 | 0.04 | 0.04 | 71 | 1012.5 |
| 20260831222504 | 89 | 195 | 0.0 | 4.0 | 0.00 | 0.04 | 0.04 | 71 | 1012.5 |
| 20260831222402 | 89 | 195 | 0.0 | 4.0 | 0.00 | 0.04 | 0.04 | 71 | 1012.5 |
| 20260831222305 | 89 | 196 | 1.0 | 4.0 | 0.00 | 0.04 | 0.04 | 70 | 1012.5 |
| 20260831222202 | 89 | 196 | 2.0 | 4.0 | 0.00 | 0.04 | 0.04 | 71 | 1012.5 |
| 20260831222103 | 89 | 196 | 2.0 | 4.0 | 0.00 | 0.04 | 0.04 | 70 | 1012.5 |
| 20260831222004 | 89 | 196 | 1.0 | 4.0 | 0.00 | 0.04 | 0.04 | 70 | 1012.5 |
| 20260831221902 | 89 | 195 | 0.0 | 1.0 | 0.00 | 0.04 | 0.04 | 71 | 1012.5 |
| 20260831221804 | 89 | 196 | 0.0 | 1.0 | 0.00 | 0.04 | 0.04 | 70 | 1012.4 |
| 20260831221703 | 0 | 0.0 | 0.0 | 0.00 | 0.04 | 0.04 | 1012.5 | ||
| 20260831221603 | 0 | 0.0 | 0.0 | 0.00 | 0.04 | 0.04 | 1012.5 | ||
| 20260831221503 | 0 | 0.0 | 0.0 | 0.00 | 0.04 | 0.04 | 1012.5 | ||
| 20260831221403 | 0 | 0.0 | 0.0 | 0.00 | 0.04 | 0.04 | 1012.5 | ||
| 20260831221303 | 0 | 0.0 | 0.0 | 0.00 | 0.04 | 0.04 | 1012.5 | ||
| 20260831221203 | 89 | 197 | 4.0 | 5.0 | 0.00 | 0.04 | 0.04 | 72 | 1012.5 |
| 20260831221103 | 89 | 197 | 4.0 | 5.0 | 0.00 | 0.04 | 0.04 | 72 | 1012.5 |
| 20260831221004 | 89 | 197 | 4.0 | 5.0 | 0.00 | 0.04 | 0.04 | 72 | 1012.5 |
| 20260831220904 | 89 | 197 | 4.0 | 5.0 | 0.00 | 0.04 | 0.04 | 72 | 1012.6 |
| 20260831220803 | 89 | 197 | 4.0 | 5.0 | 0.00 | 0.04 | 0.04 | 72 | 1012.6 |
| 20260831220703 | 89 | 197 | 4.0 | 6.0 | 0.00 | 0.04 | 0.04 | 72 | 1012.6 |
| 20260831220603 | 89 | 197 | 4.0 | 6.0 | 0.00 | 0.04 | 0.04 | 72 | 1012.6 |
| 20260831220505 | 89 | 197 | 4.0 | 6.0 | 0.00 | 0.04 | 0.04 | 72 | 1012.7 |
| 20260831220403 | 89 | 197 | 4.0 | 6.0 | 0.00 | 0.04 | 0.04 | 72 | 1012.7 |
| 20260831220303 | 89 | 197 | 4.0 | 6.0 | 0.00 | 0.04 | 0.04 | 72 | 1012.7 |
| 20260831220203 | 89 | 197 | 2.0 | 6.0 | 0.00 | 0.04 | 0.04 | 72 | 1012.7 |
| 20260831220004 | 89 | 197 | 3.0 | 6.0 | 0.00 | 0.04 | 0.04 | 72 | 1012.7 |
| 20260831215902 | 89 | 197 | 3.0 | 6.0 | 0.00 | 0.04 | 0.04 | 72 | 1012.7 |
| 20260831215732 | 89 | 200 | 2.0 | 4.0 | 0.00 | 0.04 | 0.04 | 73 | 1012.8 |
| 20260831215633 | 89 | 204 | 2.0 | 4.0 | 0.00 | 0.04 | 0.04 | 73 | 1012.7 |
| 20260831215534 | 89 | 204 | 2.0 | 4.0 | 0.00 | 0.04 | 0.04 | 73 | 1012.7 |
| 20260831215431 | 89 | 206 | 2.0 | 4.0 | 0.00 | 0.04 | 0.04 | 72 | 1012.7 |
| 20260831215333 | 89 | 214 | 3.0 | 4.0 | 0.00 | 0.04 | 0.04 | 72 | 1012.7 |
| 20260831215231 | 89 | 213 | 3.0 | 4.0 | 0.00 | 0.04 | 0.04 | 72 | 1012.7 |
| 20260831215132 | 89 | 200 | 2.0 | 4.0 | 0.00 | 0.04 | 0.04 | 72 | 1012.7 |
| 20260831215032 | 89 | 202 | 2.0 | 4.0 | 0.00 | 0.04 | 0.04 | 72 | 1012.7 |
| 20260831214933 | 89 | 202 | 2.0 | 4.0 | 0.00 | 0.04 | 0.04 | 72 | 1012.8 |
| 20260831214832 | 89 | 202 | 2.0 | 4.0 | 0.00 | 0.04 | 0.04 | 72 | 1012.7 |
| 20260831214732 | 89 | 202 | 2.0 | 4.0 | 0.00 | 0.04 | 0.04 | 72 | 1012.7 |
| 20260831214634 | 89 | 197 | 1.0 | 5.0 | 0.00 | 0.04 | 0.04 | 72 | 1012.7 |
| 20260831214531 | 89 | 200 | 1.0 | 5.0 | 0.00 | 0.04 | 0.04 | 72 | 1012.8 |
| 20260831214410 | 89 | 200 | 2.0 | 5.0 | 0.00 | 0.04 | 0.04 | 72 | 1012.8 |
| 20260831214310 | 88 | 203 | 3.0 | 5.0 | 0.00 | 0.04 | 0.04 | 72 | 1012.7 |
| 20260831214209 | 88 | 202 | 2.0 | 5.0 | 0.00 | 0.04 | 0.04 | 72 | 1012.8 |
| 20260831214110 | 88 | 204 | 1.0 | 5.0 | 0.00 | 0.04 | 0.04 | 72 | 1012.8 |
| 20260831214009 | 88 | 200 | 2.0 | 5.0 | 0.00 | 0.04 | 0.04 | 72 | 1012.8 |
| 20260831213908 | 88 | 203 | 2.0 | 5.0 | 0.00 | 0.04 | 0.04 | 72 | 1012.8 |
| 20260831213808 | 88 | 200 | 2.0 | 5.0 | 0.00 | 0.04 | 0.04 | 72 | 1012.9 |
| 20260831213708 | 88 | 202 | 1.0 | 5.0 | 0.00 | 0.04 | 0.04 | 71 | 1012.8 |
| 20260831213609 | 88 | 203 | 0.0 | 0.0 | 0.00 | 0.04 | 0.04 | 72 | 1012.9 |
| 20260831213511 | 88 | 202 | 0.0 | 0.0 | 0.00 | 0.04 | 0.04 | 72 | 1012.9 |
| 20260831213409 | 88 | 202 | 0.0 | 0.0 | 0.00 | 0.04 | 0.04 | 72 | 1012.9 |
| 20260831213311 | 88 | 204 | 0.0 | 0.0 | 0.00 | 0.04 | 0.04 | 72 | 1013.0 |
| 20260831213209 | 88 | 203 | 0.0 | 0.0 | 0.00 | 0.04 | 0.04 | 71 | 1013.0 |
| 20260831213110 | 88 | 203 | 0.0 | 0.0 | 0.00 | 0.04 | 0.04 | 71 | 1012.9 |
| 20260831213010 | 88 | 200 | 0.0 | 0.0 | 0.00 | 0.04 | 0.04 | 72 | 1013.0 |
| 20260831212910 | 87 | 202 | 0.0 | 0.0 | 0.00 | 0.04 | 0.04 | 72 | 1013.0 |
| 20260831212809 | 87 | 202 | 0.0 | 0.0 | 0.00 | 0.04 | 0.04 | 72 | 1013.1 |
| 20260831212710 | 87 | 203 | 0.0 | 0.0 | 0.00 | 0.04 | 0.04 | 73 | 1013.1 |
| 20260831212610 | 87 | 203 | 0.0 | 0.0 | 0.00 | 0.04 | 0.04 | 73 | 1013.1 |
| 20260831212510 | 87 | 203 | 0.0 | 0.0 | 0.00 | 0.04 | 0.04 | 73 | 1013.1 |
| 20260831212409 | 87 | 203 | 0.0 | 0.0 | 0.00 | 0.04 | 0.04 | 73 | 1013.1 |
| 20260831212308 | 87 | 203 | 0.0 | 0.0 | 0.00 | 0.04 | 0.04 | 74 | 1013.1 |
| 20260831212209 | 87 | 0 | 0.0 | 0.0 | 0.00 | 0.04 | 0.04 | 73 | 1013.1 |
| 20260831212109 | 87 | 204 | 0.0 | 0.0 | 0.00 | 0.04 | 0.04 | 73 | 1013.1 |
| 20260831212009 | 87 | 212 | 0.0 | 0.0 | 0.00 | 0.04 | 0.04 | 73 | 1013.1 |
| 20260831211909 | 87 | 212 | 0.0 | 0.0 | 0.00 | 0.04 | 0.04 | 73 | 1013.2 |
| 20260831211808 | 87 | 209 | 0.0 | 0.0 | 0.00 | 0.04 | 0.04 | 74 | 1013.1 |
| 20260831211707 | 87 | 210 | 0.0 | 0.0 | 0.00 | 0.04 | 0.04 | 73 | 1013.1 |
| 20260831211610 | 87 | 207 | 0.0 | 0.0 | 0.00 | 0.04 | 0.04 | 73 | 1013.1 |
| 20260831211509 | 86 | 219 | 0.0 | 0.0 | 0.00 | 0.04 | 0.04 | 74 | 1013.2 |
| 20260831211410 | 86 | 217 | 0.0 | 0.0 | 0.00 | 0.04 | 0.04 | 74 | 1013.2 |
| 20260831211309 | 86 | 220 | 0.0 | 0.0 | 0.00 | 0.04 | 0.04 | 74 | 1013.3 |
| 20260831211209 | 86 | 210 | 0.0 | 0.0 | 0.00 | 0.04 | 0.04 | 74 | 1013.2 |
| 20260831211108 | 86 | 212 | 0.0 | 0.0 | 0.00 | 0.04 | 0.04 | 74 | 1013.3 |
| 20260831211008 | 86 | 214 | 0.0 | 0.0 | 0.00 | 0.04 | 0.04 | 74 | 1013.3 |
| 20260831210910 | 86 | 0 | 0.0 | 0.0 | 0.00 | 0.04 | 0.04 | 75 | 1013.3 |
| 20260831210809 | 86 | 0 | 0.0 | 0.0 | 0.00 | 0.04 | 0.04 | 75 | 1013.3 |
| 20260831210708 | 86 | 0 | 0.0 | 0.0 | 0.00 | 0.04 | 0.04 | 75 | 1013.2 |
| 20260831210609 | 85 | 209 | 0.0 | 0.0 | 0.00 | 0.04 | 0.04 | 78 | 1013.3 |
| 20260831210509 | 85 | 196 | 0.0 | 0.0 | 0.00 | 0.04 | 0.04 | 78 | 1013.3 |
| 20260831210408 | 85 | 196 | 0.0 | 0.0 | 0.00 | 0.04 | 0.04 | 78 | 1013.4 |
| 20260831210309 | 85 | 196 | 0.0 | 0.0 | 0.00 | 0.04 | 0.04 | 78 | 1013.4 |
| 20260831210209 | 85 | 196 | 0.0 | 0.0 | 0.00 | 0.04 | 0.04 | 78 | 1013.4 |
| 20260831210107 | 85 | 193 | 0.0 | 1.0 | 0.00 | 0.04 | 0.04 | 78 | 1013.4 |
| 20260831210008 | 85 | 190 | 0.0 | 1.0 | 0.00 | 0.04 | 0.04 | 78 | 1013.4 |
| 20260831205907 | 85 | 182 | 0.0 | 4.0 | 0.00 | 0.04 | 0.04 | 78 | 1013.5 |
| 20260831205810 | 84 | 183 | 0.0 | 4.0 | 0.00 | 0.04 | 0.04 | 78 | 1013.5 |
| 20260831205707 | 84 | 183 | 0.0 | 4.0 | 0.00 | 0.04 | 0.04 | 78 | 1013.5 |
| 20260831205609 | 84 | 186 | 0.0 | 4.0 | 0.00 | 0.04 | 0.04 | 78 | 1013.5 |
| 20260831205508 | 84 | 189 | 0.0 | 4.0 | 0.00 | 0.04 | 0.04 | 78 | 1013.5 |
| 20260831205410 | 84 | 189 | 0.0 | 4.0 | 0.00 | 0.04 | 0.04 | 78 | 1013.5 |
| 20260831205310 | 84 | 189 | 0.0 | 4.0 | 0.00 | 0.04 | 0.04 | 78 | 1013.5 |
| 20260831205207 | 84 | 0 | 1.0 | 4.0 | 0.00 | 0.04 | 0.04 | 79 | 1013.5 |
| 20260831205109 | 84 | 0 | 2.0 | 4.0 | 0.00 | 0.04 | 0.04 | 78 | 1013.6 |
| 20260831205007 | 84 | 199 | 3.0 | 4.0 | 0.00 | 0.04 | 0.04 | 78 | 1013.5 |
| 20260831204908 | 84 | 0 | 1.0 | 2.0 | 0.00 | 0.04 | 0.04 | 79 | 1013.6 |
| 20260831204809 | 84 | 0 | 0.0 | 2.0 | 0.00 | 0.04 | 0.04 | 79 | 1013.6 |
| 20260831204710 | 84 | 188 | 0.0 | 0.0 | 0.01 | 0.04 | 0.04 | 79 | 1013.6 |
| 20260831204608 | 84 | 186 | 0.0 | 0.0 | 0.01 | 0.04 | 0.04 | 79 | 1013.6 |
| 20260831204507 | 84 | 195 | 0.0 | 0.0 | 0.01 | 0.04 | 0.04 | 79 | 1013.5 |
| 20260831204407 | 84 | 183 | 0.0 | 0.0 | 0.02 | 0.04 | 0.04 | 79 | 1013.6 |
| 20260831204308 | 84 | 183 | 0.0 | 0.0 | 0.02 | 0.04 | 0.04 | 80 | 1013.6 |
| 20260831204208 | 84 | 183 | 0.0 | 2.0 | 0.02 | 0.04 | 0.04 | 80 | 1013.6 |
| 20260831204108 | 84 | 183 | 0.0 | 2.0 | 0.02 | 0.04 | 0.04 | 80 | 1013.6 |
| 20260831204007 | 83 | 183 | 0.0 | 3.0 | 0.02 | 0.04 | 0.04 | 79 | 1013.6 |
| 20260831203907 | 83 | 183 | 0.0 | 3.0 | 0.02 | 0.04 | 0.04 | 80 | 1013.6 |
| 20260831203807 | 83 | 182 | 0.0 | 3.0 | 0.02 | 0.04 | 0.04 | 80 | 1013.6 |
| 20260831203708 | 83 | 0 | 0.0 | 3.0 | 0.02 | 0.04 | 0.04 | 80 | 1013.6 |
| 20260831203609 | 83 | 0 | 0.0 | 4.0 | 0.02 | 0.04 | 0.04 | 80 | 1013.6 |
| 20260831203508 | 83 | 0 | 0.0 | 4.0 | 0.02 | 0.04 | 0.04 | 80 | 1013.6 |
| 20260831203409 | 83 | 0 | 1.0 | 5.0 | 0.02 | 0.04 | 0.04 | 80 | 1013.6 |
| 20260831203307 | 83 | 0 | 1.0 | 7.0 | 0.03 | 0.04 | 0.04 | 80 | 1013.6 |
| 20260831203208 | 83 | 0 | 2.0 | 9.0 | 0.03 | 0.04 | 0.04 | 79 | 1013.6 |
| 20260831203107 | 83 | 0 | 2.0 | 11.0 | 0.03 | 0.04 | 0.04 | 79 | 1013.6 |
| 20260831203008 | 84 | 0 | 2.0 | 11.0 | 0.03 | 0.04 | 0.04 | 78 | 1013.7 |
| 20260831202909 | 84 | 0 | 2.0 | 11.0 | 0.04 | 0.04 | 0.04 | 77 | 1013.7 |
| 20260831202809 | 84 | 0 | 3.0 | 11.0 | 0.04 | 0.04 | 0.04 | 76 | 1013.8 |
| 20260831202709 | 84 | 0 | 3.0 | 11.0 | 0.04 | 0.04 | 0.04 | 76 | 1013.7 |
| 20260831202611 | 84 | 0 | 3.0 | 11.0 | 0.04 | 0.04 | 0.04 | 76 | 1013.7 |
| 20260831202508 | 84 | 0 | 5.0 | 11.0 | 0.04 | 0.04 | 0.04 | 75 | 1013.7 |
| 20260831202405 | 84 | 0 | 6.0 | 11.0 | 0.04 | 0.04 | 0.04 | 76 | 1013.7 |
| 20260831202306 | 83 | 0 | 7.0 | 11.0 | 0.04 | 0.04 | 0.04 | 76 | 1013.7 |
| 20260831202144 | 83 | 0 | 6.0 | 11.0 | 0.04 | 0.04 | 0.04 | 76 | 1013.7 |
| 20260831202041 | 83 | 0 | 3.0 | 6.0 | 0.04 | 0.04 | 0.04 | 78 | 1013.7 |
| 20260831201940 | 83 | 0 | 4.0 | 6.0 | 0.04 | 0.04 | 0.04 | 78 | 1013.7 |
| 20260831201836 | 83 | 0 | 3.0 | 5.0 | 0.04 | 0.04 | 0.04 | 79 | 1013.8 |
| 20260831201737 | 83 | 0 | 2.0 | 5.0 | 0.04 | 0.04 | 0.04 | 79 | 1013.8 |
| 20260831201635 | 83 | 0 | 3.0 | 5.0 | 0.04 | 0.04 | 0.04 | 79 | 1013.8 |
| 20260831201532 | 83 | 0 | 4.0 | 5.0 | 0.04 | 0.04 | 0.04 | 79 | 1013.9 |
| 20260831201431 | 83 | 0 | 4.0 | 5.0 | 0.04 | 0.04 | 0.04 | 80 | 1013.8 |
| 20260831201330 | 83 | 0 | 4.0 | 5.0 | 0.04 | 0.04 | 0.04 | 80 | 1013.8 |
| 20260831201231 | 83 | 0 | 3.0 | 4.0 | 0.04 | 0.04 | 0.04 | 82 | 1013.9 |
| 20260831201131 | 82 | 0 | 3.0 | 4.0 | 0.04 | 0.04 | 0.04 | 82 | 1013.9 |
| 20260831201032 | 82 | 0 | 2.0 | 3.0 | 0.04 | 0.04 | 0.04 | 82 | 1013.9 |
| 20260831200931 | 82 | 0 | 1.0 | 3.0 | 0.04 | 0.04 | 0.04 | 82 | 1013.9 |
| 20260831200832 | 82 | 0 | 2.0 | 3.0 | 0.04 | 0.04 | 0.04 | 82 | 1013.9 |
| 20260831200732 | 82 | 0 | 2.0 | 3.0 | 0.04 | 0.04 | 0.04 | 82 | 1014.0 |
| 20260831200620 | 82 | 0 | 1.0 | 3.0 | 0.04 | 0.04 | 0.04 | 82 | 1014.0 |
| 20260831200518 | 82 | 0 | 1.0 | 3.0 | 0.04 | 0.04 | 0.04 | 83 | 1013.9 |
| 20260831200417 | 82 | 0 | 1.0 | 3.0 | 0.04 | 0.04 | 0.04 | 83 | 1014.0 |
| 20260831200312 | 82 | 0 | 1.0 | 3.0 | 0.04 | 0.04 | 0.04 | 82 | 1013.9 |
| 20260831200210 | 82 | 0 | 2.0 | 3.0 | 0.04 | 0.04 | 0.04 | 82 | 1014.0 |
| 20260831200110 | 82 | 0 | 1.0 | 3.0 | 0.04 | 0.04 | 0.04 | 82 | 1014.0 |
| 20260831200008 | 82 | 0 | 1.0 | 3.0 | 0.04 | 0.04 | 0.04 | 83 | 1014.0 |
| 20260831195906 | 82 | 0 | 2.0 | 3.0 | 0.04 | 0.04 | 0.04 | 82 | 1014.0 |
| 20260831195806 | 81 | 0 | 2.0 | 4.0 | 0.04 | 0.04 | 0.04 | 82 | 1014.1 |
| 20260831195706 | 81 | 0 | 2.0 | 4.0 | 0.04 | 0.04 | 0.04 | 82 | 1014.0 |
| 20260831195608 | 81 | 0 | 2.0 | 4.0 | 0.04 | 0.04 | 0.04 | 82 | 1014.1 |
| 20260831195507 | 81 | 0 | 0.0 | 4.0 | 0.04 | 0.04 | 0.04 | 82 | 1014.1 |
| 20260831195407 | 81 | 0 | 0.0 | 4.0 | 0.04 | 0.04 | 0.04 | 83 | 1014.1 |
| 20260831195306 | 81 | 0 | 0.0 | 4.0 | 0.04 | 0.04 | 0.04 | 83 | 1014.1 |
| 20260831195206 | 81 | 0 | 0.0 | 4.0 | 0.04 | 0.04 | 0.04 | 82 | 1014.1 |
| 20260831195106 | 81 | 0 | 1.0 | 4.0 | 0.04 | 0.04 | 0.04 | 82 | 1014.0 |
| 20260831195008 | 81 | 0 | 1.0 | 4.0 | 0.04 | 0.04 | 0.04 | 82 | 1014.0 |
| 20260831194905 | 81 | 0 | 2.0 | 4.0 | 0.04 | 0.04 | 0.04 | 82 | 1014.0 |
| 20260831194806 | 81 | 0 | 2.0 | 5.0 | 0.04 | 0.04 | 0.04 | 82 | 1014.1 |
| 20260831194706 | 81 | 0 | 2.0 | 5.0 | 0.03 | 0.03 | 0.03 | 82 | 1014.1 |
| 20260831194606 | 81 | 0 | 2.0 | 5.0 | 0.03 | 0.03 | 0.03 | 82 | 1014.2 |
| 20260831194507 | 81 | 0 | 3.0 | 6.0 | 0.03 | 0.02 | 0.02 | 83 | 1014.2 |
| 20260831194405 | 82 | 0 | 2.0 | 6.0 | 0.02 | 0.02 | 0.02 | 83 | 1014.2 |
| 20260831194306 | 82 | 0 | 2.0 | 6.0 | 0.02 | 0.02 | 0.02 | 83 | 1014.2 |
| 20260831194205 | 82 | 0 | 2.0 | 6.0 | 0.02 | 0.02 | 0.02 | 83 | 1014.2 |
| 20260831194106 | 82 | 0 | 2.0 | 6.0 | 0.02 | 0.02 | 0.02 | 83 | 1014.2 |
| 20260831194008 | 82 | 0 | 2.0 | 6.0 | 0.02 | 0.02 | 0.02 | 83 | 1014.2 |
| 20260831193906 | 83 | 0 | 4.0 | 6.0 | 0.02 | 0.02 | 0.02 | 82 | 1014.2 |
| 20260831193807 | 83 | 0 | 4.0 | 6.0 | 0.02 | 0.02 | 0.02 | 82 | 1014.1 |
| 20260831193706 | 83 | 128 | 4.0 | 6.0 | 0.02 | 0.02 | 0.02 | 82 | 1014.1 |
| 20260831193606 | 83 | 121 | 3.0 | 6.0 | 0.02 | 0.02 | 0.02 | 83 | 1014.1 |
| 20260831193505 | 84 | 120 | 3.0 | 6.0 | 0.02 | 0.02 | 0.02 | 81 | 1014.1 |
| 20260831193405 | 84 | 120 | 3.0 | 6.0 | 0.02 | 0.02 | 0.02 | 81 | 1014.2 |
| 20260831193305 | 86 | 142 | 3.0 | 6.0 | 0.01 | 0.01 | 0.01 | 76 | 1014.2 |
| 20260831193206 | 86 | 142 | 3.0 | 6.0 | 0.01 | 0.01 | 0.01 | 76 | 1014.3 |
| 20260831193105 | 86 | 142 | 3.0 | 6.0 | 0.01 | 0.01 | 0.01 | 76 | 1014.2 |
| 20260831193005 | 86 | 147 | 3.0 | 5.0 | 0.01 | 0.00 | 0.00 | 76 | 1014.2 |
| 20260831192906 | 0 | 0.0 | 0.0 | 0.00 | 0.00 | 0.00 | 1014.2 | ||
| 20260831192806 | 0 | 0.0 | 0.0 | 0.00 | 0.00 | 0.00 | 1014.3 | ||
| 20260831192703 | 0 | 0.0 | 0.0 | 0.00 | 0.00 | 0.00 | 1014.3 | ||
| 20260831192604 | 0 | 0.0 | 0.0 | 0.00 | 0.00 | 0.00 | 1014.3 | ||
| 20260831192504 | 0 | 0.0 | 0.0 | 0.00 | 0.00 | 0.00 | 1014.3 | ||
| 20260831192404 | 0 | 0.0 | 0.0 | 0.00 | 0.00 | 0.00 | 1014.4 | ||
| 20260831192305 | 0 | 0.0 | 0.0 | 0.00 | 0.00 | 0.00 | 1014.4 | ||
| 20260831192204 | 0 | 0.0 | 0.0 | 0.00 | 0.00 | 0.00 | 1014.3 | ||
| 20260831192103 | 0 | 0.0 | 0.0 | 0.00 | 0.00 | 0.00 | 1014.4 | ||
| 20260831192003 | 0 | 0.0 | 0.0 | 0.00 | 0.00 | 0.00 | 1014.5 | ||
| 20260831191904 | 0 | 0.0 | 0.0 | 0.00 | 0.00 | 0.00 | 1014.5 | ||
| 20260831191803 | 0 | 0.0 | 0.0 | 0.00 | 0.00 | 0.00 | 1014.6 | ||
| 20260831191702 | 0 | 0.0 | 0.0 | 0.00 | 0.00 | 0.00 | 1014.5 | ||
| 20260831191602 | 91 | 128 | 3.0 | 4.0 | 0.00 | 0.00 | 0.00 | 69 | 1014.5 |
| 20260831191501 | 91 | 128 | 3.0 | 4.0 | 0.00 | 0.00 | 0.00 | 69 | 1014.5 |
| 20260831191401 | 91 | 128 | 3.0 | 4.0 | 0.00 | 0.00 | 0.00 | 69 | 1014.5 |
| 20260831191302 | 91 | 128 | 3.0 | 7.0 | 0.00 | 0.00 | 0.00 | 69 | 1014.5 |
| 20260831191200 | 91 | 128 | 3.0 | 7.0 | 0.00 | 0.00 | 0.00 | 69 | 1014.4 |
| 20260831191100 | 91 | 128 | 3.0 | 7.0 | 0.00 | 0.00 | 0.00 | 69 | 1014.4 |
| 20260831191000 | 91 | 128 | 3.0 | 7.0 | 0.00 | 0.00 | 0.00 | 69 | 1014.4 |
| 20260831190859 | 91 | 128 | 3.0 | 7.0 | 0.00 | 0.00 | 0.00 | 69 | 1014.4 |
| 20260831190759 | 91 | 128 | 3.0 | 7.0 | 0.00 | 0.00 | 0.00 | 69 | 1014.3 |
| 20260831190701 | 91 | 128 | 3.0 | 7.0 | 0.00 | 0.00 | 0.00 | 69 | 1014.3 |
| 20260831190603 | 91 | 159 | 3.0 | 7.0 | 0.00 | 0.00 | 0.00 | 69 | 1014.3 |
| 20260831190458 | 91 | 142 | 3.0 | 7.0 | 0.00 | 0.00 | 0.00 | 68 | 1014.3 |
| 20260831190400 | 91 | 189 | 3.0 | 7.0 | 0.00 | 0.00 | 0.00 | 69 | 1014.3 |
| 20260831190300 | 91 | 102 | 4.0 | 7.0 | 0.00 | 0.00 | 0.00 | 66 | 1014.3 |
| 20260831190200 | 91 | 127 | 4.0 | 7.0 | 0.00 | 0.00 | 0.00 | 65 | 1014.3 |
| 20260831190059 | 92 | 161 | 4.0 | 7.0 | 0.00 | 0.00 | 0.00 | 63 | 1014.4 |
| 20260831185958 | 92 | 109 | 4.0 | 7.0 | 0.00 | 0.00 | 0.00 | 63 | 1014.3 |
| 20260831185900 | 92 | 94 | 3.0 | 7.0 | 0.00 | 0.00 | 0.00 | 64 | 1014.3 |
| 20260831185758 | 92 | 93 | 4.0 | 7.0 | 0.00 | 0.00 | 0.00 | 64 | 1014.4 |
| 20260831185658 | 92 | 93 | 5.0 | 7.0 | 0.00 | 0.00 | 0.00 | 64 | 1014.3 |
| 20260831185559 | 92 | 97 | 5.0 | 7.0 | 0.00 | 0.00 | 0.00 | 62 | 1014.3 |
| 20260831185458 | 92 | 96 | 4.0 | 7.0 | 0.00 | 0.00 | 0.00 | 62 | 1014.3 |
| 20260831185358 | 92 | 100 | 2.0 | 6.0 | 0.00 | 0.00 | 0.00 | 62 | 1014.3 |
| 20260831185258 | 92 | 104 | 2.0 | 5.0 | 0.00 | 0.00 | 0.00 | 62 | 1014.3 |
| 20260831185200 | 92 | 104 | 2.0 | 5.0 | 0.00 | 0.00 | 0.00 | 62 | 1014.3 |
| 20260831185059 | 92 | 124 | 2.0 | 5.0 | 0.00 | 0.00 | 0.00 | 62 | 1014.3 |
| 20260831184957 | 92 | 124 | 2.0 | 5.0 | 0.00 | 0.00 | 0.00 | 62 | 1014.3 |
| 20260831184859 | 92 | 124 | 4.0 | 5.0 | 0.00 | 0.00 | 0.00 | 63 | 1014.4 |
| 20260831184758 | 92 | 124 | 2.0 | 5.0 | 0.00 | 0.00 | 0.00 | 63 | 1014.3 |
| 20260831184700 | 92 | 127 | 2.0 | 3.0 | 0.00 | 0.00 | 0.00 | 62 | 1014.4 |
| 20260831184558 | 92 | 127 | 2.0 | 3.0 | 0.00 | 0.00 | 0.00 | 61 | 1014.4 |
| 20260831184459 | 92 | 127 | 0.0 | 2.0 | 0.00 | 0.00 | 0.00 | 64 | 1014.4 |
| 20260831184359 | 92 | 127 | 0.0 | 2.0 | 0.00 | 0.00 | 0.00 | 63 | 1014.5 |
| 20260831184259 | 92 | 127 | 0.0 | 3.0 | 0.00 | 0.00 | 0.00 | 63 | 1014.5 |
| 20260831184158 | 92 | 127 | 0.0 | 4.0 | 0.00 | 0.00 | 0.00 | 63 | 1014.5 |
| 20260831184058 | 92 | 127 | 0.0 | 4.0 | 0.00 | 0.00 | 0.00 | 65 | 1014.5 |
| 20260831183958 | 92 | 127 | 0.0 | 4.0 | 0.00 | 0.00 | 0.00 | 63 | 1014.5 |
| 20260831183857 | 92 | 125 | 0.0 | 6.0 | 0.00 | 0.00 | 0.00 | 64 | 1014.5 |
| 20260831183759 | 92 | 125 | 0.0 | 6.0 | 0.00 | 0.00 | 0.00 | 64 | 1014.5 |
| 20260831183657 | 92 | 125 | 1.0 | 6.0 | 0.00 | 0.00 | 0.00 | 64 | 1014.6 |
| 20260831183559 | 92 | 125 | 1.0 | 6.0 | 0.00 | 0.00 | 0.00 | 64 | 1014.6 |
| 20260831183459 | 92 | 125 | 2.0 | 6.0 | 0.00 | 0.00 | 0.00 | 64 | 1014.6 |
| 20260831183358 | 92 | 125 | 2.0 | 6.0 | 0.00 | 0.00 | 0.00 | 64 | 1014.6 |
| 20260831183259 | 93 | 111 | 4.0 | 6.0 | 0.00 | 0.00 | 0.00 | 64 | 1014.7 |
| 20260831183158 | 93 | 90 | 3.0 | 6.0 | 0.00 | 0.00 | 0.00 | 64 | 1014.6 |
| 20260831183059 | 93 | 90 | 3.0 | 6.0 | 0.00 | 0.00 | 0.00 | 64 | 1014.7 |
| 20260831182959 | 93 | 90 | 3.0 | 6.0 | 0.00 | 0.00 | 0.00 | 64 | 1014.7 |
| 20260831182859 | 93 | 141 | 2.0 | 3.0 | 0.00 | 0.00 | 0.00 | 65 | 1014.6 |
| 20260831182803 | 92 | 135 | 2.0 | 4.0 | 0.00 | 0.00 | 0.00 | 64 | 1014.7 |
| 20260831182659 | 92 | 135 | 2.0 | 4.0 | 0.00 | 0.00 | 0.00 | 64 | 1014.6 |
| 20260831182557 | 92 | 135 | 2.0 | 4.0 | 0.00 | 0.00 | 0.00 | 64 | 1014.6 |
| 20260831182457 | 92 | 135 | 2.0 | 4.0 | 0.00 | 0.00 | 0.00 | 64 | 1014.6 |
| 20260831182357 | 92 | 135 | 2.0 | 4.0 | 0.00 | 0.00 | 0.00 | 64 | 1014.6 |
| 20260831182257 | 92 | 135 | 2.0 | 4.0 | 0.00 | 0.00 | 0.00 | 64 | 1014.6 |
| 20260831182157 | 92 | 135 | 2.0 | 4.0 | 0.00 | 0.00 | 0.00 | 64 | 1014.7 |
| 20260831182056 | 92 | 135 | 2.0 | 4.0 | 0.00 | 0.00 | 0.00 | 64 | 1014.6 |
| 20260831181955 | 92 | 137 | 2.0 | 4.0 | 0.00 | 0.00 | 0.00 | 64 | 1014.6 |
| 20260831181857 | 92 | 135 | 2.0 | 4.0 | 0.00 | 0.00 | 0.00 | 63 | 1014.7 |
| 20260831181756 | 92 | 134 | 2.0 | 4.0 | 0.00 | 0.00 | 0.00 | 63 | 1014.7 |
| 20260831181655 | 92 | 117 | 1.0 | 4.0 | 0.00 | 0.00 | 0.00 | 64 | 1014.7 |
| 20260831181557 | 92 | 148 | 2.0 | 4.0 | 0.00 | 0.00 | 0.00 | 63 | 1014.6 |
| 20260831181455 | 92 | 148 | 2.0 | 4.0 | 0.00 | 0.00 | 0.00 | 64 | 1014.7 |
| 20260831181356 | 92 | 148 | 2.0 | 4.0 | 0.00 | 0.00 | 0.00 | 64 | 1014.7 |
| 20260831181255 | 92 | 148 | 2.0 | 4.0 | 0.00 | 0.00 | 0.00 | 65 | 1014.8 |
| 20260831181158 | 91 | 0 | 2.0 | 4.0 | 0.00 | 0.00 | 0.00 | 65 | 1014.8 |
| 20260831181055 | 91 | 148 | 3.0 | 4.0 | 0.00 | 0.00 | 0.00 | 64 | 1014.8 |
| 20260831180957 | 91 | 148 | 4.0 | 4.0 | 0.00 | 0.00 | 0.00 | 63 | 1014.9 |
| 20260831180856 | 92 | 147 | 3.0 | 7.0 | 0.00 | 0.00 | 0.00 | 64 | 1014.8 |
| 20260831180755 | 92 | 148 | 3.0 | 7.0 | 0.00 | 0.00 | 0.00 | 65 | 1014.8 |
| 20260831180656 | 92 | 147 | 3.0 | 7.0 | 0.00 | 0.00 | 0.00 | 65 | 1014.9 |
| 20260831180557 | 92 | 138 | 2.0 | 7.0 | 0.00 | 0.00 | 0.00 | 64 | 1014.9 |
| 20260831180457 | 92 | 138 | 2.0 | 7.0 | 0.00 | 0.00 | 0.00 | 64 | 1014.9 |
| 20260831180356 | 92 | 138 | 2.0 | 7.0 | 0.00 | 0.00 | 0.00 | 64 | 1014.8 |
| 20260831180255 | 92 | 140 | 2.0 | 7.0 | 0.00 | 0.00 | 0.00 | 64 | 1015.0 |
| 20260831180202 | 92 | 118 | 2.0 | 7.0 | 0.00 | 0.00 | 0.00 | 66 | 1014.9 |
| 20260831180056 | 91 | 114 | 4.0 | 7.0 | 0.00 | 0.00 | 0.00 | 66 | 1015.0 |
| 20260831175955 | 91 | 111 | 4.0 | 7.0 | 0.00 | 0.00 | 0.00 | 64 | 1015.0 |
| 20260831175857 | 91 | 120 | 4.0 | 6.0 | 0.00 | 0.00 | 0.00 | 65 | 1015.0 |
| 20260831175755 | 92 | 114 | 4.0 | 6.0 | 0.00 | 0.00 | 0.00 | 65 | 1015.0 |
| 20260831175659 | 92 | 111 | 3.0 | 6.0 | 0.00 | 0.00 | 0.00 | 65 | 1015.0 |
| 20260831175536 | 92 | 103 | 2.0 | 6.0 | 0.00 | 0.00 | 0.00 | 66 | 1015.0 |
| 20260831175433 | 91 | 102 | 4.0 | 6.0 | 0.00 | 0.00 | 0.00 | 65 | 1015.0 |
| 20260831175332 | 91 | 102 | 4.0 | 6.0 | 0.00 | 0.00 | 0.00 | 65 | 1015.1 |
| 20260831175232 | 91 | 99 | 4.0 | 6.0 | 0.00 | 0.00 | 0.00 | 67 | 1015.1 |
| 20260831175131 | 91 | 99 | 4.0 | 6.0 | 0.00 | 0.00 | 0.00 | 67 | 1015.0 |
| 20260831175033 | 91 | 99 | 4.0 | 6.0 | 0.00 | 0.00 | 0.00 | 65 | 1015.0 |
| 20260831174932 | 91 | 99 | 4.0 | 6.0 | 0.00 | 0.00 | 0.00 | 65 | 1015.0 |
| 20260831174832 | 91 | 103 | 2.0 | 6.0 | 0.00 | 0.00 | 0.00 | 65 | 1015.1 |
| 20260831174731 | 91 | 120 | 2.0 | 5.0 | 0.00 | 0.00 | 0.00 | 65 | 1015.0 |
| 20260831174631 | 91 | 118 | 3.0 | 5.0 | 0.00 | 0.00 | 0.00 | 65 | 1015.1 |
| 20260831174532 | 91 | 113 | 2.0 | 5.0 | 0.00 | 0.00 | 0.00 | 66 | 1015.1 |
| 20260831174431 | 91 | 111 | 3.0 | 5.0 | 0.00 | 0.00 | 0.00 | 67 | 1015.1 |
| 20260831174333 | 91 | 111 | 4.0 | 5.0 | 0.00 | 0.00 | 0.00 | 67 | 1015.1 |
| 20260831174232 | 90 | 103 | 2.0 | 5.0 | 0.00 | 0.00 | 0.00 | 67 | 1015.1 |
| 20260831174132 | 90 | 103 | 2.0 | 5.0 | 0.00 | 0.00 | 0.00 | 67 | 1015.0 |
| 20260831174032 | 90 | 103 | 2.0 | 5.0 | 0.00 | 0.00 | 0.00 | 67 | 1015.0 |
| 20260831173932 | 90 | 103 | 2.0 | 6.0 | 0.00 | 0.00 | 0.00 | 67 | 1015.0 |
| 20260831173832 | 90 | 103 | 2.0 | 6.0 | 0.00 | 0.00 | 0.00 | 67 | 1015.0 |
| 20260831173731 | 90 | 103 | 1.0 | 6.0 | 0.00 | 0.00 | 0.00 | 67 | 1015.1 |
| 20260831173631 | 90 | 102 | 1.0 | 6.0 | 0.00 | 0.00 | 0.00 | 67 | 1015.1 |
| 20260831173532 | 90 | 102 | 2.0 | 6.0 | 0.00 | 0.00 | 0.00 | 67 | 1015.2 |
| 20260831173432 | 90 | 102 | 3.0 | 6.0 | 0.00 | 0.00 | 0.00 | 67 | 1015.2 |
| 20260831173331 | 90 | 102 | 4.0 | 6.0 | 0.00 | 0.00 | 0.00 | 67 | 1015.1 |
| 20260831173233 | 90 | 103 | 4.0 | 6.0 | 0.00 | 0.00 | 0.00 | 68 | 1015.1 |
| 20260831173130 | 90 | 103 | 4.0 | 6.0 | 0.00 | 0.00 | 0.00 | 67 | 1015.2 |
| 20260831173032 | 90 | 100 | 5.0 | 6.0 | 0.00 | 0.00 | 0.00 | 67 | 1015.2 |
| 20260831172932 | 90 | 92 | 3.0 | 6.0 | 0.00 | 0.00 | 0.00 | 67 | 1015.2 |
| 20260831172834 | 90 | 92 | 3.0 | 7.0 | 0.00 | 0.00 | 0.00 | 67 | 1015.2 |
| 20260831172733 | 90 | 92 | 3.0 | 7.0 | 0.00 | 0.00 | 0.00 | 67 | 1015.2 |
| 20260831172632 | 90 | 92 | 3.0 | 7.0 | 0.00 | 0.00 | 0.00 | 67 | 1015.2 |
| 20260831172533 | 90 | 92 | 2.0 | 7.0 | 0.00 | 0.00 | 0.00 | 68 | 1015.3 |
| 20260831172431 | 90 | 92 | 1.0 | 7.0 | 0.00 | 0.00 | 0.00 | 67 | 1015.2 |
| 20260831172331 | 90 | 71 | 1.0 | 7.0 | 0.00 | 0.00 | 0.00 | 67 | 1015.2 |
| 20260831172232 | 90 | 71 | 2.0 | 7.0 | 0.00 | 0.00 | 0.00 | 66 | 1015.2 |
| 20260831172132 | 90 | 71 | 4.0 | 7.0 | 0.00 | 0.00 | 0.00 | 65 | 1015.2 |
| 20260831172032 | 91 | 99 | 5.0 | 7.0 | 0.00 | 0.00 | 0.00 | 65 | 1015.3 |
| 20260831171933 | 91 | 100 | 6.0 | 7.0 | 0.00 | 0.00 | 0.00 | 66 | 1015.2 |
| 20260831171832 | 92 | 89 | 3.0 | 5.0 | 0.00 | 0.00 | 0.00 | 67 | 1015.3 |
| 20260831171732 | 92 | 89 | 3.0 | 5.0 | 0.00 | 0.00 | 0.00 | 67 | 1015.2 |
| 20260831171604 | 92 | 89 | 3.0 | 5.0 | 0.00 | 0.00 | 0.00 | 67 | 1015.3 |
| 20260831171505 | 92 | 89 | 3.0 | 5.0 | 0.00 | 0.00 | 0.00 | 67 | 1015.3 |
| 20260831171403 | 91 | 86 | 2.0 | 5.0 | 0.00 | 0.00 | 0.00 | 66 | 1015.3 |
| 20260831171303 | 91 | 85 | 0.0 | 5.0 | 0.00 | 0.00 | 0.00 | 66 | 1015.2 |
| 20260831171203 | 91 | 85 | 0.0 | 5.0 | 0.00 | 0.00 | 0.00 | 66 | 1015.2 |
| 20260831171103 | 91 | 85 | 2.0 | 5.0 | 0.00 | 0.00 | 0.00 | 67 | 1015.3 |
| 20260831171003 | 91 | 85 | 2.0 | 5.0 | 0.00 | 0.00 | 0.00 | 67 | 1015.3 |
| 20260831170903 | 91 | 92 | 2.0 | 5.0 | 0.00 | 0.00 | 0.00 | 66 | 1015.3 |
| 20260831170802 | 91 | 92 | 3.0 | 5.0 | 0.00 | 0.00 | 0.00 | 66 | 1015.3 |
| 20260831170703 | 91 | 89 | 4.0 | 5.0 | 0.00 | 0.00 | 0.00 | 66 | 1015.3 |
| 20260831170602 | 92 | 80 | 3.0 | 5.0 | 0.00 | 0.00 | 0.00 | 66 | 1015.3 |
| 20260831170504 | 92 | 82 | 4.0 | 5.0 | 0.00 | 0.00 | 0.00 | 66 | 1015.2 |
| 20260831170404 | 92 | 82 | 4.0 | 5.0 | 0.00 | 0.00 | 0.00 | 66 | 1015.2 |
| 20260831170302 | 92 | 82 | 4.0 | 5.0 | 0.00 | 0.00 | 0.00 | 66 | 1015.2 |
| 20260831170204 | 92 | 82 | 4.0 | 5.0 | 0.00 | 0.00 | 0.00 | 66 | 1015.2 |
| 20260831170004 | 91 | 111 | 3.0 | 6.0 | 0.00 | 0.00 | 0.00 | 66 | 1015.2 |
| 20260831165902 | 91 | 113 | 3.0 | 9.0 | 0.00 | 0.00 | 0.00 | 66 | 1015.2 |
| 20260831165801 | 92 | 124 | 1.0 | 9.0 | 0.00 | 0.00 | 0.00 | 66 | 1015.2 |
| 20260831165703 | 92 | 125 | 0.0 | 9.0 | 0.00 | 0.00 | 0.00 | 66 | 1015.3 |
| 20260831165602 | 91 | 125 | 0.0 | 9.0 | 0.00 | 0.00 | 0.00 | 66 | 1015.3 |
| 20260831165504 | 91 | 124 | 0.0 | 9.0 | 0.00 | 0.00 | 0.00 | 67 | 1015.3 |
| 20260831165403 | 91 | 125 | 4.0 | 9.0 | 0.00 | 0.00 | 0.00 | 66 | 1015.3 |
| 20260831165305 | 91 | 125 | 4.0 | 9.0 | 0.00 | 0.00 | 0.00 | 66 | 1015.4 |
| 20260831165204 | 91 | 125 | 4.0 | 9.0 | 0.00 | 0.00 | 0.00 | 66 | 1015.4 |
| 20260831165103 | 91 | 125 | 4.0 | 9.0 | 0.00 | 0.00 | 0.00 | 66 | 1015.4 |
| 20260831165003 | 91 | 118 | 4.0 | 9.0 | 0.00 | 0.00 | 0.00 | 67 | 1015.4 |
| 20260831164903 | 91 | 89 | 3.0 | 7.0 | 0.00 | 0.00 | 0.00 | 68 | 1015.4 |
| 20260831164803 | 91 | 113 | 2.0 | 5.0 | 0.00 | 0.00 | 0.00 | 68 | 1015.3 |
| 20260831164702 | 91 | 113 | 0.0 | 0.0 | 0.00 | 0.00 | 0.00 | 69 | 1015.4 |
| 20260831164607 | 0 | 0.0 | 0.0 | 0.00 | 0.00 | 0.00 | 1015.3 | ||
| 20260831164505 | 91 | 111 | 0.0 | 0.0 | 0.00 | 0.00 | 0.00 | 68 | 1015.4 |
| 20260831164402 | 91 | 111 | 0.0 | 2.0 | 0.00 | 0.00 | 0.00 | 68 | 1015.4 |
| 20260831164302 | 91 | 111 | 0.0 | 3.0 | 0.00 | 0.00 | 0.00 | 68 | 1015.4 |
| 20260831164204 | 91 | 111 | 0.0 | 5.0 | 0.00 | 0.00 | 0.00 | 68 | 1015.3 |
| 20260831164103 | 91 | 111 | 0.0 | 5.0 | 0.00 | 0.00 | 0.00 | 68 | 1015.5 |
| 20260831164003 | 91 | 111 | 0.0 | 5.0 | 0.00 | 0.00 | 0.00 | 68 | 1015.5 |
| 20260831163903 | 91 | 111 | 0.0 | 5.0 | 0.00 | 0.00 | 0.00 | 68 | 1015.5 |
| 20260831163803 | 91 | 111 | 0.0 | 5.0 | 0.00 | 0.00 | 0.00 | 68 | 1015.4 |
| 20260831163704 | 91 | 111 | 0.0 | 5.0 | 0.00 | 0.00 | 0.00 | 68 | 1015.4 |
| 20260831163603 | 91 | 111 | 0.0 | 5.0 | 0.00 | 0.00 | 0.00 | 68 | 1015.5 |
| 20260831163503 | 90 | 111 | 1.0 | 5.0 | 0.00 | 0.00 | 0.00 | 68 | 1015.4 |
| 20260831163402 | 90 | 111 | 2.0 | 5.0 | 0.00 | 0.00 | 0.00 | 68 | 1015.5 |
| 20260831163302 | 90 | 111 | 3.0 | 5.0 | 0.00 | 0.00 | 0.00 | 70 | 1015.5 |
| 20260831163204 | 90 | 113 | 2.0 | 5.0 | 0.00 | 0.00 | 0.00 | 70 | 1015.4 |
| 20260831163103 | 90 | 110 | 2.0 | 5.0 | 0.00 | 0.00 | 0.00 | 69 | 1015.5 |
| 20260831163002 | 90 | 110 | 2.0 | 5.0 | 0.00 | 0.00 | 0.00 | 70 | 1015.4 |
| 20260831162902 | 90 | 110 | 2.0 | 5.0 | 0.00 | 0.00 | 0.00 | 69 | 1015.5 |
| 20260831162803 | 90 | 110 | 4.0 | 5.0 | 0.00 | 0.00 | 0.00 | 69 | 1015.4 |
| 20260831162703 | 90 | 110 | 3.0 | 5.0 | 0.00 | 0.00 | 0.00 | 69 | 1015.4 |
| 20260831162602 | 90 | 151 | 1.0 | 4.0 | 0.00 | 0.00 | 0.00 | 70 | 1015.3 |
| 20260831162503 | 90 | 152 | 1.0 | 4.0 | 0.00 | 0.00 | 0.00 | 69 | 1015.3 |
| 20260831162403 | 90 | 152 | 2.0 | 4.0 | 0.00 | 0.00 | 0.00 | 68 | 1015.4 |
| 20260831162305 | 90 | 154 | 3.0 | 4.0 | 0.00 | 0.00 | 0.00 | 68 | 1015.3 |
| 20260831162202 | 90 | 151 | 3.0 | 4.0 | 0.00 | 0.00 | 0.00 | 68 | 1015.4 |
| 20260831162102 | 90 | 149 | 2.0 | 4.0 | 0.00 | 0.00 | 0.00 | 68 | 1015.3 |
| 20260831162002 | 90 | 149 | 1.0 | 4.0 | 0.00 | 0.00 | 0.00 | 68 | 1015.4 |
| 20260831161902 | 90 | 127 | 0.0 | 4.0 | 0.00 | 0.00 | 0.00 | 70 | 1015.4 |
| 20260831161803 | 90 | 127 | 0.0 | 4.0 | 0.00 | 0.00 | 0.00 | 70 | 1015.4 |
| 20260831161703 | 90 | 127 | 0.0 | 4.0 | 0.00 | 0.00 | 0.00 | 69 | 1015.4 |
| 20260831161602 | 89 | 127 | 0.0 | 4.0 | 0.00 | 0.00 | 0.00 | 69 | 1015.5 |
| 20260831161503 | 90 | 117 | 3.0 | 4.0 | 0.00 | 0.00 | 0.00 | 70 | 1015.5 |
| 20260831161403 | 90 | 117 | 3.0 | 4.0 | 0.00 | 0.00 | 0.00 | 70 | 1015.5 |
| 20260831161303 | 90 | 117 | 3.0 | 5.0 | 0.00 | 0.00 | 0.00 | 70 | 1015.5 |
| 20260831161204 | 90 | 117 | 3.0 | 6.0 | 0.00 | 0.00 | 0.00 | 70 | 1015.5 |
| 20260831161054 | 89 | 117 | 3.0 | 6.0 | 0.00 | 0.00 | 0.00 | 70 | 1015.5 |
| 20260831160954 | 89 | 117 | 3.0 | 6.0 | 0.00 | 0.00 | 0.00 | 69 | 1015.5 |
| 20260831160852 | 89 | 93 | 3.0 | 6.0 | 0.00 | 0.00 | 0.00 | 70 | 1015.5 |
| 20260831160752 | 89 | 93 | 3.0 | 6.0 | 0.00 | 0.00 | 0.00 | 70 | 1015.5 |
| 20260831160652 | 89 | 93 | 3.0 | 6.0 | 0.00 | 0.00 | 0.00 | 70 | 1015.5 |
| 20260831160552 | 89 | 93 | 3.0 | 6.0 | 0.00 | 0.00 | 0.00 | 70 | 1015.5 |
| 20260831160450 | 89 | 93 | 3.0 | 6.0 | 0.00 | 0.00 | 0.00 | 71 | 1015.5 |
| 20260831160352 | 89 | 93 | 4.0 | 6.0 | 0.00 | 0.00 | 0.00 | 71 | 1015.5 |
| 20260831160252 | 89 | 118 | 4.0 | 6.0 | 0.00 | 0.00 | 0.00 | 70 | 1015.5 |
| 20260831160151 | 89 | 118 | 3.0 | 6.0 | 0.00 | 0.00 | 0.00 | 71 | 1015.5 |
| 20260831160051 | 89 | 100 | 2.0 | 6.0 | 0.00 | 0.00 | 0.00 | 71 | 1015.5 |
| 20260831155951 | 89 | 100 | 2.0 | 6.0 | 0.00 | 0.00 | 0.00 | 71 | 1015.5 |
| 20260831155851 | 89 | 99 | 1.0 | 6.0 | 0.00 | 0.00 | 0.00 | 71 | 1015.5 |
| 20260831155751 | 89 | 99 | 0.0 | 6.0 | 0.00 | 0.00 | 0.00 | 70 | 1015.4 |
| 20260831155651 | 89 | 99 | 1.0 | 6.0 | 0.00 | 0.00 | 0.00 | 70 | 1015.5 |
| 20260831155551 | 89 | 99 | 2.0 | 6.0 | 0.00 | 0.00 | 0.00 | 70 | 1015.5 |
| 20260831155452 | 89 | 99 | 4.0 | 6.0 | 0.00 | 0.00 | 0.00 | 71 | 1015.5 |
| 20260831155351 | 89 | 99 | 3.0 | 6.0 | 0.00 | 0.00 | 0.00 | 70 | 1015.5 |
| 20260831155252 | 89 | 234 | 0.0 | 2.0 | 0.00 | 0.00 | 0.00 | 71 | 1015.5 |
| 20260831155150 | 89 | 234 | 0.0 | 2.0 | 0.00 | 0.00 | 0.00 | 71 | 1015.5 |
| 20260831155051 | 89 | 196 | 1.0 | 2.0 | 0.00 | 0.00 | 0.00 | 70 | 1015.5 |
| 20260831154952 | 89 | 196 | 1.0 | 2.0 | 0.00 | 0.00 | 0.00 | 70 | 1015.5 |
| 20260831154852 | 89 | 196 | 1.0 | 3.0 | 0.00 | 0.00 | 0.00 | 70 | 1015.5 |
| 20260831154751 | 89 | 196 | 1.0 | 3.0 | 0.00 | 0.00 | 0.00 | 70 | 1015.6 |
| 20260831154652 | 88 | 117 | 2.0 | 3.0 | 0.00 | 0.00 | 0.00 | 71 | 1015.5 |
| 20260831154551 | 88 | 117 | 2.0 | 3.0 | 0.00 | 0.00 | 0.00 | 71 | 1015.6 |
| 20260831154449 | 88 | 117 | 2.0 | 3.0 | 0.00 | 0.00 | 0.00 | 71 | 1015.6 |
| 20260831154350 | 88 | 117 | 2.0 | 3.0 | 0.00 | 0.00 | 0.00 | 71 | 1015.5 |
| 20260831154250 | 88 | 117 | 2.0 | 3.0 | 0.00 | 0.00 | 0.00 | 71 | 1015.5 |
| 20260831154149 | 88 | 117 | 2.0 | 3.0 | 0.00 | 0.00 | 0.00 | 71 | 1015.6 |
| 20260831154049 | 88 | 117 | 2.0 | 3.0 | 0.00 | 0.00 | 0.00 | 71 | 1015.6 |
| 20260831153949 | 88 | 117 | 2.0 | 3.0 | 0.00 | 0.00 | 0.00 | 71 | 1015.6 |
| 20260831153848 | 88 | 117 | 3.0 | 3.0 | 0.00 | 0.00 | 0.00 | 71 | 1015.6 |
| 20260831153750 | 88 | 118 | 0.0 | 0.0 | 0.00 | 0.00 | 0.00 | 71 | 1015.6 |
| 20260831153649 | 88 | 118 | 0.0 | 0.0 | 0.00 | 0.00 | 0.00 | 71 | 1015.7 |
| 20260831153549 | 88 | 118 | 0.0 | 0.0 | 0.00 | 0.00 | 0.00 | 71 | 1015.6 |
| 20260831153448 | 88 | 118 | 0.0 | 0.0 | 0.00 | 0.00 | 0.00 | 71 | 1015.7 |
| 20260831153350 | 88 | 118 | 0.0 | 0.0 | 0.00 | 0.00 | 0.00 | 71 | 1015.7 |
| 20260831153249 | 88 | 118 | 0.0 | 0.0 | 0.00 | 0.00 | 0.00 | 71 | 1015.7 |
| 20260831153149 | 0 | 0.0 | 0.0 | 0.00 | 0.00 | 0.00 | 1015.7 | ||
| 20260831153049 | 0 | 0.0 | 0.0 | 0.00 | 0.00 | 0.00 | 1015.7 | ||
| 20260831152948 | 0 | 0.0 | 0.0 | 0.00 | 0.00 | 0.00 | 1015.7 | ||
| 20260831152847 | 0 | 0.0 | 0.0 | 0.00 | 0.00 | 0.00 | 1015.7 | ||
| 20260831152748 | 0 | 0.0 | 0.0 | 0.00 | 0.00 | 0.00 | 1015.6 | ||
| 20260831152647 | 0 | 0.0 | 0.0 | 0.00 | 0.00 | 0.00 | 1015.6 | ||
| 20260831152550 | 0 | 0.0 | 0.0 | 0.00 | 0.00 | 0.00 | 1015.7 | ||
| 20260831152445 | 0 | 0.0 | 0.0 | 0.00 | 0.00 | 0.00 | 1015.6 | ||
| 20260831152345 | 0 | 0.0 | 0.0 | 0.00 | 0.00 | 0.00 | 1015.6 | ||
| 20260831152245 | 0 | 0.0 | 0.0 | 0.00 | 0.00 | 0.00 | 1015.6 | ||
| 20260831152145 | 0 | 0.0 | 0.0 | 0.00 | 0.00 | 0.00 | 1015.7 | ||
| 20260831152045 | 0 | 0.0 | 0.0 | 0.00 | 0.00 | 0.00 | 1015.6 | ||
| 20260831151944 | 0 | 0.0 | 0.0 | 0.00 | 0.00 | 0.00 | 1015.6 | ||
| 20260831151844 | 0 | 90 | 0.0 | 0.0 | 0.00 | 0.00 | 0.00 | 1015.6 | |
| 20260831151743 | 87 | 90 | 0.0 | 0.0 | 0.00 | 0.00 | 0.00 | 76 | 1015.5 |
| 20260831151643 | 87 | 90 | 0.0 | 2.0 | 0.00 | 0.00 | 0.00 | 76 | 1015.6 |
| 20260831151544 | 87 | 90 | 0.0 | 2.0 | 0.00 | 0.00 | 0.00 | 76 | 1015.6 |
| 20260831151441 | 87 | 90 | 0.0 | 3.0 | 0.00 | 0.00 | 0.00 | 76 | 1015.5 |
| 20260831151343 | 87 | 90 | 0.0 | 4.0 | 0.00 | 0.00 | 0.00 | 76 | 1015.6 |
| 20260831151242 | 87 | 90 | 0.0 | 4.0 | 0.00 | 0.00 | 0.00 | 76 | 1015.5 |
| 20260831151142 | 87 | 90 | 0.0 | 7.0 | 0.00 | 0.00 | 0.00 | 76 | 1015.5 |
| 20260831151041 | 87 | 90 | 0.0 | 9.0 | 0.00 | 0.00 | 0.00 | 76 | 1015.6 |
| 20260831150943 | 87 | 90 | 0.0 | 9.0 | 0.00 | 0.00 | 0.00 | 76 | 1015.5 |
| 20260831150839 | 87 | 90 | 0.0 | 9.0 | 0.00 | 0.00 | 0.00 | 76 | 1015.6 |
| 20260831150741 | 87 | 90 | 0.0 | 9.0 | 0.00 | 0.00 | 0.00 | 75 | 1015.5 |
| 20260831150642 | 87 | 90 | 1.0 | 9.0 | 0.00 | 0.00 | 0.00 | 75 | 1015.5 |
| 20260831150540 | 87 | 90 | 2.0 | 9.0 | 0.00 | 0.00 | 0.00 | 76 | 1015.6 |
| 20260831150442 | 87 | 90 | 2.0 | 9.0 | 0.00 | 0.00 | 0.00 | 75 | 1015.6 |
| 20260831150341 | 87 | 90 | 3.0 | 9.0 | 0.00 | 0.00 | 0.00 | 76 | 1015.6 |
| 20260831150242 | 87 | 90 | 4.0 | 9.0 | 0.00 | 0.00 | 0.00 | 75 | 1015.6 |
| 20260831150141 | 87 | 114 | 3.0 | 9.0 | 0.00 | 0.00 | 0.00 | 76 | 1015.5 |
| 20260831150043 | 87 | 83 | 1.0 | 4.0 | 0.00 | 0.00 | 0.00 | 77 | 1015.6 |
| 20260831145940 | 87 | 117 | 0.0 | 0.0 | 0.00 | 0.00 | 0.00 | 77 | 1015.5 |
| 20260831145841 | 87 | 118 | 0.0 | 0.0 | 0.00 | 0.00 | 0.00 | 77 | 1015.5 |
| 20260831145742 | 87 | 118 | 0.0 | 0.0 | 0.00 | 0.00 | 0.00 | 77 | 1015.5 |
| 20260831145641 | 87 | 118 | 0.0 | 0.0 | 0.00 | 0.00 | 0.00 | 77 | 1015.5 |
| 20260831145540 | 87 | 118 | 0.0 | 0.0 | 0.00 | 0.00 | 0.00 | 77 | 1015.5 |
| 20260831145441 | 0 | 0.0 | 0.0 | 0.00 | 0.00 | 0.00 | 1015.5 | ||
| 20260831145342 | 0 | 0.0 | 0.0 | 0.00 | 0.00 | 0.00 | 1015.5 | ||
| 20260831145239 | 0 | 0.0 | 0.0 | 0.00 | 0.00 | 0.00 | 1015.6 | ||
| 20260831145139 | 86 | 120 | 2.0 | 5.0 | 0.00 | 0.00 | 0.00 | 78 | 1015.5 |
| 20260831145039 | 86 | 120 | 2.0 | 5.0 | 0.00 | 0.00 | 0.00 | 78 | 1015.5 |
| 20260831144938 | 86 | 120 | 2.0 | 5.0 | 0.00 | 0.00 | 0.00 | 78 | 1015.5 |
| 20260831144840 | 86 | 120 | 2.0 | 5.0 | 0.00 | 0.00 | 0.00 | 78 | 1015.5 |
| 20260831144737 | 86 | 120 | 2.0 | 5.0 | 0.00 | 0.00 | 0.00 | 78 | 1015.4 |
| 20260831144637 | 86 | 120 | 2.0 | 5.0 | 0.00 | 0.00 | 0.00 | 78 | 1015.4 |
| 20260831144536 | 86 | 120 | 2.0 | 5.0 | 0.00 | 0.00 | 0.00 | 78 | 1015.4 |
| 20260831144437 | 86 | 120 | 2.0 | 5.0 | 0.00 | 0.00 | 0.00 | 78 | 1015.4 |
| 20260831144337 | 86 | 120 | 2.0 | 5.0 | 0.00 | 0.00 | 0.00 | 78 | 1015.4 |
| 20260831144239 | 86 | 120 | 2.0 | 5.0 | 0.00 | 0.00 | 0.00 | 78 | 1015.3 |
| 20260831144137 | 86 | 121 | 1.0 | 4.0 | 0.00 | 0.00 | 0.00 | 78 | 1015.4 |
| 20260831144037 | 86 | 192 | 0.0 | 0.0 | 0.00 | 0.00 | 0.00 | 79 | 1015.3 |
| 20260831143936 | 86 | 192 | 0.0 | 0.0 | 0.00 | 0.00 | 0.00 | 78 | 1015.4 |
| 20260831143837 | 86 | 192 | 0.0 | 0.0 | 0.00 | 0.00 | 0.00 | 78 | 1015.3 |
| 20260831143737 | 86 | 192 | 0.0 | 0.0 | 0.00 | 0.00 | 0.00 | 78 | 1015.4 |
| 20260831143635 | 86 | 192 | 0.0 | 0.0 | 0.00 | 0.00 | 0.00 | 78 | 1015.3 |
| 20260831143536 | 86 | 192 | 0.0 | 0.0 | 0.00 | 0.00 | 0.00 | 79 | 1015.3 |
| 20260831143436 | 86 | 192 | 0.0 | 0.0 | 0.00 | 0.00 | 0.00 | 79 | 1015.3 |
| 20260831143336 | 86 | 192 | 0.0 | 0.0 | 0.00 | 0.00 | 0.00 | 78 | 1015.3 |
| 20260831143236 | 86 | 192 | 0.0 | 0.0 | 0.00 | 0.00 | 0.00 | 79 | 1015.3 |
| 20260831143136 | 86 | 192 | 0.0 | 0.0 | 0.00 | 0.00 | 0.00 | 79 | 1015.3 |
| 20260831143036 | 85 | 192 | 0.0 | 0.0 | 0.00 | 0.00 | 0.00 | 80 | 1015.3 |
| 20260831142936 | 85 | 192 | 0.0 | 0.0 | 0.00 | 0.00 | 0.00 | 80 | 1015.3 |
| 20260831142835 | 85 | 192 | 0.0 | 0.0 | 0.00 | 0.00 | 0.00 | 79 | 1015.4 |
| 20260831142735 | 85 | 192 | 0.0 | 0.0 | 0.00 | 0.00 | 0.00 | 79 | 1015.4 |
| 20260831142635 | 86 | 192 | 0.0 | 0.0 | 0.00 | 0.00 | 0.00 | 80 | 1015.4 |
| 20260831142536 | 85 | 192 | 0.0 | 0.0 | 0.00 | 0.00 | 0.00 | 80 | 1015.4 |
| 20260831142435 | 85 | 192 | 0.0 | 0.0 | 0.00 | 0.00 | 0.00 | 80 | 1015.4 |
| 20260831142342 | 85 | 192 | 0.0 | 0.0 | 0.00 | 0.00 | 0.00 | 80 | 1015.4 |
| 20260831142235 | 85 | 192 | 0.0 | 0.0 | 0.00 | 0.00 | 0.00 | 80 | 1015.4 |
| 20260831142135 | 85 | 192 | 0.0 | 0.0 | 0.00 | 0.00 | 0.00 | 80 | 1015.5 |
| 20260831142035 | 85 | 192 | 0.0 | 0.0 | 0.00 | 0.00 | 0.00 | 80 | 1015.4 |
| 20260831141935 | 86 | 192 | 0.0 | 0.0 | 0.00 | 0.00 | 0.00 | 80 | 1015.4 |
| 20260831141835 | 85 | 224 | 0.0 | 0.0 | 0.00 | 0.00 | 0.00 | 81 | 1015.4 |
| 20260831141735 | 85 | 224 | 0.0 | 0.0 | 0.00 | 0.00 | 0.00 | 81 | 1015.4 |
| 20260831141635 | 85 | 224 | 0.0 | 0.0 | 0.00 | 0.00 | 0.00 | 82 | 1015.4 |
| 20260831141536 | 85 | 224 | 0.0 | 0.0 | 0.00 | 0.00 | 0.00 | 81 | 1015.3 |
| 20260831141435 | 85 | 224 | 0.0 | 0.0 | 0.00 | 0.00 | 0.00 | 82 | 1015.3 |
| 20260831141335 | 85 | 224 | 0.0 | 0.0 | 0.00 | 0.00 | 0.00 | 81 | 1015.3 |
| 20260831141237 | 85 | 224 | 0.0 | 0.0 | 0.00 | 0.00 | 0.00 | 82 | 1015.4 |
| 20260831141137 | 85 | 224 | 0.0 | 0.0 | 0.00 | 0.00 | 0.00 | 81 | 1015.3 |
| 20260831141035 | 85 | 224 | 0.0 | 0.0 | 0.00 | 0.00 | 0.00 | 82 | 1015.4 |
| 20260831140936 | 85 | 224 | 0.0 | 0.0 | 0.00 | 0.00 | 0.00 | 82 | 1015.3 |
| 20260831140836 | 85 | 224 | 0.0 | 0.0 | 0.00 | 0.00 | 0.00 | 82 | 1015.3 |
| 20260831140735 | 85 | 224 | 0.0 | 0.0 | 0.00 | 0.00 | 0.00 | 82 | 1015.3 |
| 20260831140636 | 85 | 224 | 0.0 | 0.0 | 0.00 | 0.00 | 0.00 | 82 | 1015.3 |
| 20260831140534 | 85 | 224 | 0.0 | 0.0 | 0.00 | 0.00 | 0.00 | 82 | 1015.3 |
| 20260831140438 | 85 | 224 | 0.0 | 0.0 | 0.00 | 0.00 | 0.00 | 82 | 1015.2 |
| 20260831140335 | 85 | 224 | 0.0 | 0.0 | 0.00 | 0.00 | 0.00 | 82 | 1015.3 |
| 20260831140236 | 85 | 223 | 0.0 | 0.0 | 0.00 | 0.00 | 0.00 | 83 | 1015.3 |
| 20260831140137 | 84 | 223 | 0.0 | 0.0 | 0.00 | 0.00 | 0.00 | 83 | 1015.2 |
| 20260831140035 | 84 | 223 | 0.0 | 0.0 | 0.00 | 0.00 | 0.00 | 83 | 1015.3 |
| 20260831135935 | 84 | 223 | 0.0 | 0.0 | 0.00 | 0.00 | 0.00 | 83 | 1015.3 |
| 20260831135836 | 84 | 223 | 0.0 | 0.0 | 0.00 | 0.00 | 0.00 | 82 | 1015.3 |
| 20260831135735 | 84 | 223 | 0.0 | 0.0 | 0.00 | 0.00 | 0.00 | 83 | 1015.3 |
| 20260831135635 | 84 | 223 | 0.0 | 0.0 | 0.00 | 0.00 | 0.00 | 83 | 1015.3 |
| 20260831135535 | 84 | 223 | 0.0 | 0.0 | 0.00 | 0.00 | 0.00 | 82 | 1015.3 |
| 20260831135435 | 84 | 223 | 0.0 | 0.0 | 0.00 | 0.00 | 0.00 | 82 | 1015.3 |
| 20260831135334 | 84 | 223 | 0.0 | 0.0 | 0.00 | 0.00 | 0.00 | 82 | 1015.3 |
| 20260831135235 | 84 | 223 | 0.0 | 0.0 | 0.00 | 0.00 | 0.00 | 83 | 1015.3 |
| 20260831135135 | 84 | 223 | 0.0 | 0.0 | 0.00 | 0.00 | 0.00 | 83 | 1015.3 |
| 20260831135035 | 84 | 223 | 0.0 | 0.0 | 0.00 | 0.00 | 0.00 | 83 | 1015.3 |
| 20260831134934 | 84 | 221 | 0.0 | 0.0 | 0.00 | 0.00 | 0.00 | 83 | 1015.3 |
| 20260831134834 | 84 | 221 | 0.0 | 0.0 | 0.00 | 0.00 | 0.00 | 83 | 1015.2 |
| 20260831134735 | 84 | 221 | 0.0 | 0.0 | 0.00 | 0.00 | 0.00 | 83 | 1015.2 |
| 20260831134634 | 84 | 221 | 0.0 | 0.0 | 0.00 | 0.00 | 0.00 | 83 | 1015.2 |
| 20260831134534 | 84 | 221 | 0.0 | 0.0 | 0.00 | 0.00 | 0.00 | 83 | 1015.1 |
| 20260831134434 | 84 | 221 | 0.0 | 0.0 | 0.00 | 0.00 | 0.00 | 83 | 1015.1 |
| 20260831134334 | 84 | 221 | 0.0 | 0.0 | 0.00 | 0.00 | 0.00 | 83 | 1015.1 |
| 20260831134236 | 84 | 221 | 0.0 | 0.0 | 0.00 | 0.00 | 0.00 | 83 | 1015.1 |
| 20260831134134 | 84 | 220 | 0.0 | 0.0 | 0.00 | 0.00 | 0.00 | 83 | 1015.2 |
| 20260831134035 | 84 | 220 | 0.0 | 0.0 | 0.00 | 0.00 | 0.00 | 83 | 1015.2 |
| 20260831133934 | 84 | 220 | 0.0 | 0.0 | 0.00 | 0.00 | 0.00 | 83 | 1015.2 |
| 20260831133834 | 84 | 220 | 0.0 | 0.0 | 0.00 | 0.00 | 0.00 | 83 | 1015.3 |
| 20260831133736 | 84 | 220 | 0.0 | 0.0 | 0.00 | 0.00 | 0.00 | 83 | 1015.2 |
| 20260831133634 | 84 | 217 | 0.0 | 0.0 | 0.00 | 0.00 | 0.00 | 83 | 1015.2 |
| 20260831133534 | 83 | 217 | 0.0 | 0.0 | 0.00 | 0.00 | 0.00 | 83 | 1015.2 |
| 20260831133431 | 83 | 217 | 0.0 | 0.0 | 0.00 | 0.00 | 0.00 | 83 | 1015.2 |
| 20260831133331 | 83 | 217 | 0.0 | 0.0 | 0.00 | 0.00 | 0.00 | 83 | 1015.1 |
| 20260831133232 | 83 | 217 | 0.0 | 0.0 | 0.00 | 0.00 | 0.00 | 84 | 1015.2 |
| 20260831133130 | 83 | 217 | 0.0 | 0.0 | 0.00 | 0.00 | 0.00 | 84 | 1015.2 |
| 20260831133031 | 83 | 217 | 0.0 | 0.0 | 0.00 | 0.00 | 0.00 | 84 | 1015.1 |
| 20260831132932 | 83 | 217 | 0.0 | 0.0 | 0.00 | 0.00 | 0.00 | 84 | 1015.1 |
| 20260831132833 | 83 | 217 | 0.0 | 0.0 | 0.00 | 0.00 | 0.00 | 84 | 1015.1 |
| 20260831132731 | 83 | 217 | 0.0 | 0.0 | 0.00 | 0.00 | 0.00 | 84 | 1015.1 |
| 20260831132632 | 83 | 217 | 0.0 | 0.0 | 0.00 | 0.00 | 0.00 | 84 | 1015.1 |
| 20260831132532 | 83 | 217 | 0.0 | 0.0 | 0.00 | 0.00 | 0.00 | 84 | 1015.0 |
| 20260831132433 | 83 | 217 | 0.0 | 0.0 | 0.00 | 0.00 | 0.00 | 84 | 1015.0 |
| 20260831132333 | 83 | 217 | 0.0 | 0.0 | 0.00 | 0.00 | 0.00 | 84 | 1015.0 |
| 20260831132232 | 83 | 217 | 0.0 | 0.0 | 0.00 | 0.00 | 0.00 | 84 | 1015.0 |
| 20260831132131 | 82 | 217 | 0.0 | 0.0 | 0.00 | 0.00 | 0.00 | 86 | 1015.0 |
| 20260831132032 | 82 | 217 | 0.0 | 0.0 | 0.00 | 0.00 | 0.00 | 86 | 1015.0 |
| 20260831131932 | 82 | 217 | 0.0 | 0.0 | 0.00 | 0.00 | 0.00 | 86 | 1015.0 |
| 20260831131832 | 82 | 217 | 0.0 | 0.0 | 0.00 | 0.00 | 0.00 | 86 | 1015.0 |
| 20260831131732 | 82 | 217 | 0.0 | 0.0 | 0.00 | 0.00 | 0.00 | 86 | 1015.0 |
| 20260831131632 | 82 | 217 | 0.0 | 0.0 | 0.00 | 0.00 | 0.00 | 86 | 1014.9 |
| 20260831131506 | 82 | 217 | 0.0 | 0.0 | 0.00 | 0.00 | 0.00 | 86 | 1014.9 |
| 20260831131404 | 82 | 217 | 0.0 | 0.0 | 0.00 | 0.00 | 0.00 | 86 | 1014.8 |
| 20260831131303 | 82 | 0 | 0.0 | 0.0 | 0.00 | 0.00 | 0.00 | 86 | 1014.8 |
| 20260831131202 | 82 | 228 | 0.0 | 0.0 | 0.00 | 0.00 | 0.00 | 86 | 1014.8 |
| 20260831131102 | 82 | 226 | 0.0 | 0.0 | 0.00 | 0.00 | 0.00 | 86 | 1014.8 |
| 20260831131004 | 82 | 226 | 0.0 | 0.0 | 0.00 | 0.00 | 0.00 | 86 | 1014.8 |
| 20260831130903 | 82 | 227 | 0.0 | 0.0 | 0.00 | 0.00 | 0.00 | 86 | 1014.7 |
| 20260831130803 | 82 | 213 | 0.0 | 0.0 | 0.00 | 0.00 | 0.00 | 86 | 1014.7 |
| 20260831130703 | 82 | 213 | 0.0 | 0.0 | 0.00 | 0.00 | 0.00 | 86 | 1014.7 |
| 20260831130604 | 82 | 213 | 0.0 | 0.0 | 0.00 | 0.00 | 0.00 | 86 | 1014.7 |
| 20260831130504 | 82 | 213 | 0.0 | 0.0 | 0.00 | 0.00 | 0.00 | 86 | 1014.7 |
| 20260831130402 | 82 | 213 | 0.0 | 0.0 | 0.00 | 0.00 | 0.00 | 86 | 1014.7 |
| 20260831130303 | 82 | 214 | 0.0 | 0.0 | 0.00 | 0.00 | 0.00 | 86 | 1014.6 |
| 20260831130204 | 82 | 216 | 0.0 | 0.0 | 0.00 | 0.00 | 0.00 | 86 | 1014.7 |
| 20260831130003 | 82 | 219 | 0.0 | 0.0 | 0.00 | 0.00 | 0.00 | 86 | 1014.7 |
| 20260831125903 | 82 | 220 | 0.0 | 0.0 | 0.00 | 0.00 | 0.00 | 86 | 1014.7 |
| 20260831125802 | 82 | 223 | 0.0 | 0.0 | 0.00 | 0.00 | 0.00 | 86 | 1014.7 |
| 20260831125702 | 82 | 0 | 0.0 | 0.0 | 0.00 | 0.00 | 0.00 | 86 | 1014.7 |
| 20260831125602 | 82 | 226 | 0.0 | 0.0 | 0.00 | 0.00 | 0.00 | 86 | 1014.7 |
| 20260831125507 | 82 | 231 | 0.0 | 0.0 | 0.00 | 0.00 | 0.00 | 86 | 1014.7 |
| 20260831125403 | 82 | 230 | 0.0 | 0.0 | 0.00 | 0.00 | 0.00 | 86 | 1014.6 |
| 20260831125309 | 82 | 231 | 0.0 | 0.0 | 0.00 | 0.00 | 0.00 | 86 | 1014.6 |
| 20260831125202 | 82 | 230 | 0.0 | 0.0 | 0.00 | 0.00 | 0.00 | 86 | 1014.6 |
| 20260831125103 | 82 | 230 | 0.0 | 0.0 | 0.00 | 0.00 | 0.00 | 87 | 1014.6 |
| 20260831125004 | 0 | 0.0 | 0.0 | 0.00 | 0.00 | 0.00 | 1014.5 | ||
| 20260831124903 | 0 | 0.0 | 0.0 | 0.00 | 0.00 | 0.00 | 1014.5 | ||
| 20260831124803 | 0 | 0.0 | 0.0 | 0.00 | 0.00 | 0.00 | 1014.5 | ||
| 20260831124704 | 0 | 0.0 | 0.0 | 0.00 | 0.00 | 0.00 | 1014.6 | ||
| 20260831124604 | 0 | 0.0 | 0.0 | 0.00 | 0.00 | 0.00 | 1014.6 | ||
| 20260831124504 | 0 | 0.0 | 0.0 | 0.00 | 0.00 | 0.00 | 1014.5 | ||
| 20260831124403 | 0 | 0.0 | 0.0 | 0.00 | 0.00 | 0.00 | 1014.5 | ||
| 20260831124303 | 0 | 0.0 | 0.0 | 0.00 | 0.00 | 0.00 | 1014.6 | ||
| 20260831124203 | 0 | 0.0 | 0.0 | 0.00 | 0.00 | 0.00 | 1014.5 | ||
| 20260831124104 | 0 | 0.0 | 0.0 | 0.00 | 0.00 | 0.00 | 1014.6 | ||
| 20260831124003 | 0 | 0.0 | 0.0 | 0.00 | 0.00 | 0.00 | 1014.5 | ||
| 20260831123903 | 0 | 0.0 | 0.0 | 0.00 | 0.00 | 0.00 | 1014.6 | ||
| 20260831123803 | 0 | 0.0 | 0.0 | 0.00 | 0.00 | 0.00 | 1014.6 | ||
| 20260831123703 | 80 | 0 | 0.0 | 0.0 | 0.00 | 0.00 | 0.00 | 87 | 1014.5 |
| 20260831123603 | 80 | 0 | 0.0 | 0.0 | 0.00 | 0.00 | 0.00 | 87 | 1014.6 |
| 20260831123504 | 80 | 0 | 0.0 | 0.0 | 0.00 | 0.00 | 0.00 | 87 | 1014.6 |
| 20260831123403 | 80 | 0 | 0.0 | 0.0 | 0.00 | 0.00 | 0.00 | 87 | 1014.5 |
| 20260831123304 | 80 | 0 | 0.0 | 0.0 | 0.00 | 0.00 | 0.00 | 87 | 1014.5 |
| 20260831123134 | 80 | 0 | 0.0 | 0.0 | 0.00 | 0.00 | 0.00 | 87 | 1014.5 |
| 20260831123033 | 80 | 0 | 0.0 | 0.0 | 0.00 | 0.00 | 0.00 | 87 | 1014.5 |
| 20260831122932 | 80 | 0 | 0.0 | 0.0 | 0.00 | 0.00 | 0.00 | 87 | 1014.4 |
| 20260831122831 | 80 | 0 | 0.0 | 0.0 | 0.00 | 0.00 | 0.00 | 87 | 1014.4 |
| 20260831122732 | 80 | 0 | 0.0 | 0.0 | 0.00 | 0.00 | 0.00 | 87 | 1014.4 |
| 20260831122632 | 80 | 0 | 0.0 | 0.0 | 0.00 | 0.00 | 0.00 | 87 | 1014.4 |
| 20260831122532 | 80 | 0 | 0.0 | 0.0 | 0.00 | 0.00 | 0.00 | 87 | 1014.3 |
| 20260831122433 | 80 | 0 | 0.0 | 0.0 | 0.00 | 0.00 | 0.00 | 88 | 1014.4 |
| 20260831122331 | 80 | 0 | 0.0 | 0.0 | 0.00 | 0.00 | 0.00 | 88 | 1014.3 |
| 20260831122231 | 80 | 0 | 0.0 | 0.0 | 0.00 | 0.00 | 0.00 | 88 | 1014.4 |
| 20260831122132 | 80 | 0 | 0.0 | 0.0 | 0.00 | 0.00 | 0.00 | 88 | 1014.3 |
| 20260831122030 | 80 | 0 | 0.0 | 0.0 | 0.00 | 0.00 | 0.00 | 87 | 1014.4 |
| 20260831121932 | 80 | 0 | 0.0 | 0.0 | 0.00 | 0.00 | 0.00 | 87 | 1014.2 |
| 20260831121832 | 80 | 0 | 0.0 | 0.0 | 0.00 | 0.00 | 0.00 | 87 | 1014.2 |
| 20260831121731 | 80 | 0 | 0.0 | 0.0 | 0.00 | 0.00 | 0.00 | 87 | 1014.2 |
| 20260831121633 | 80 | 0 | 0.0 | 0.0 | 0.00 | 0.00 | 0.00 | 87 | 1014.2 |
| 20260831121533 | 80 | 0 | 0.0 | 0.0 | 0.00 | 0.00 | 0.00 | 87 | 1014.1 |
| 20260831121432 | 80 | 0 | 0.0 | 0.0 | 0.00 | 0.00 | 0.00 | 87 | 1014.1 |
| 20260831121333 | 80 | 0 | 0.0 | 0.0 | 0.00 | 0.00 | 0.00 | 87 | 1014.1 |
| 20260831121232 | 80 | 0 | 0.0 | 0.0 | 0.00 | 0.00 | 0.00 | 87 | 1014.1 |
| 20260831121131 | 80 | 0 | 0.0 | 0.0 | 0.00 | 0.00 | 0.00 | 87 | 1014.1 |
| 20260831121033 | 80 | 0 | 0.0 | 0.0 | 0.00 | 0.00 | 0.00 | 87 | 1014.1 |
| 20260831120933 | 80 | 0 | 0.0 | 0.0 | 0.00 | 0.00 | 0.00 | 87 | 1014.0 |
| 20260831120831 | 80 | 0 | 0.0 | 0.0 | 0.00 | 0.00 | 0.00 | 87 | 1014.1 |
| 20260831120733 | 80 | 0 | 0.0 | 0.0 | 0.00 | 0.00 | 0.00 | 87 | 1014.1 |
| 20260831120631 | 80 | 0 | 0.0 | 0.0 | 0.00 | 0.00 | 0.00 | 87 | 1014.0 |
| 20260831120531 | 80 | 0 | 0.0 | 0.0 | 0.00 | 0.00 | 0.00 | 87 | 1014.1 |
| 20260831120431 | 80 | 0 | 0.0 | 0.0 | 0.00 | 0.00 | 0.00 | 87 | 1014.0 |
| 20260831120331 | 80 | 0 | 0.0 | 0.0 | 0.00 | 0.00 | 0.00 | 87 | 1014.0 |
| 20260831120228 | 80 | 0 | 0.0 | 0.0 | 0.00 | 0.00 | 0.00 | 87 | 1014.0 |
| 20260831120127 | 80 | 0 | 0.0 | 0.0 | 0.00 | 0.00 | 0.00 | 87 | 1014.0 |
| 20260831120027 | 80 | 0 | 0.0 | 0.0 | 0.00 | 0.00 | 0.00 | 87 | 1014.1 |
| 20260831115926 | 80 | 0 | 0.0 | 0.0 | 0.00 | 0.00 | 0.00 | 87 | 1013.9 |
| 20260831115825 | 80 | 0 | 0.0 | 0.0 | 0.00 | 0.00 | 0.00 | 87 | 1014.0 |
| 20260831115726 | 80 | 0 | 0.0 | 0.0 | 0.00 | 0.00 | 0.00 | 87 | 1014.0 |
| 20260831115626 | 80 | 0 | 0.0 | 0.0 | 0.00 | 0.00 | 0.00 | 87 | 1014.0 |
| 20260831115526 | 80 | 0 | 0.0 | 0.0 | 0.00 | 0.00 | 0.00 | 87 | 1014.0 |
| 20260831115426 | 80 | 0 | 0.0 | 0.0 | 0.00 | 0.00 | 0.00 | 87 | 1014.0 |
| 20260831115327 | 80 | 0 | 0.0 | 0.0 | 0.00 | 0.00 | 0.00 | 87 | 1014.0 |
| 20260831115225 | 80 | 0 | 0.0 | 0.0 | 0.00 | 0.00 | 0.00 | 87 | 1014.0 |
| 20260831115125 | 80 | 0 | 0.0 | 0.0 | 0.00 | 0.00 | 0.00 | 87 | 1014.0 |
| 20260831115025 | 80 | 0 | 0.0 | 0.0 | 0.00 | 0.00 | 0.00 | 87 | 1013.9 |
| 20260831114926 | 80 | 0 | 0.0 | 0.0 | 0.00 | 0.00 | 0.00 | 87 | 1013.9 |
| 20260831114826 | 80 | 0 | 0.0 | 0.0 | 0.00 | 0.00 | 0.00 | 87 | 1013.9 |
| 20260831114725 | 80 | 0 | 0.0 | 0.0 | 0.00 | 0.00 | 0.00 | 86 | 1013.9 |
| 20260831114626 | 80 | 0 | 0.0 | 0.0 | 0.00 | 0.00 | 0.00 | 86 | 1013.9 |
| 20260831114525 | 80 | 0 | 0.0 | 0.0 | 0.00 | 0.00 | 0.00 | 86 | 1014.0 |
| 20260831114426 | 80 | 0 | 0.0 | 0.0 | 0.00 | 0.00 | 0.00 | 86 | 1014.0 |
| 20260831114325 | 81 | 0 | 0.0 | 0.0 | 0.00 | 0.00 | 0.00 | 85 | 1014.0 |
| 20260831114226 | 81 | 0 | 0.0 | 0.0 | 0.00 | 0.00 | 0.00 | 85 | 1014.0 |
| 20260831114126 | 81 | 0 | 0.0 | 0.0 | 0.00 | 0.00 | 0.00 | 85 | 1013.9 |
| 20260831114026 | 81 | 0 | 0.0 | 0.0 | 0.00 | 0.00 | 0.00 | 85 | 1013.9 |
| 20260831113925 | 81 | 0 | 0.0 | 0.0 | 0.00 | 0.00 | 0.00 | 85 | 1013.9 |
| 20260831113825 | 81 | 0 | 0.0 | 0.0 | 0.00 | 0.00 | 0.00 | 86 | 1013.9 |
| 20260831113727 | 81 | 0 | 0.0 | 0.0 | 0.00 | 0.00 | 0.00 | 86 | 1013.9 |
| 20260831113624 | 81 | 0 | 0.0 | 0.0 | 0.00 | 0.00 | 0.00 | 86 | 1013.9 |
| 20260831113525 | 81 | 0 | 0.0 | 0.0 | 0.00 | 0.00 | 0.00 | 86 | 1013.9 |
| 20260831113426 | 81 | 0 | 0.0 | 0.0 | 0.00 | 0.00 | 0.00 | 86 | 1013.9 |
| 20260831113325 | 81 | 0 | 0.0 | 0.0 | 0.00 | 0.00 | 0.00 | 86 | 1013.9 |
| 20260831113226 | 81 | 0 | 0.0 | 0.0 | 0.00 | 0.00 | 0.00 | 86 | 1013.8 |
| 20260831113126 | 81 | 0 | 0.0 | 0.0 | 0.00 | 0.00 | 0.00 | 86 | 1013.9 |
| 20260831113027 | 81 | 0 | 0.0 | 0.0 | 0.00 | 0.00 | 0.00 | 86 | 1013.9 |
| 20260831112925 | 81 | 0 | 0.0 | 0.0 | 0.00 | 0.00 | 0.00 | 86 | 1013.8 |
| 20260831112824 | 81 | 0 | 0.0 | 0.0 | 0.00 | 0.00 | 0.00 | 86 | 1013.8 |
| 20260831112725 | 81 | 0 | 0.0 | 0.0 | 0.00 | 0.00 | 0.00 | 86 | 1013.8 |
| 20260831112624 | 81 | 0 | 0.0 | 0.0 | 0.00 | 0.00 | 0.00 | 86 | 1013.9 |
| 20260831112524 | 81 | 0 | 0.0 | 0.0 | 0.00 | 0.00 | 0.00 | 86 | 1013.8 |
| 20260831112424 | 80 | 0 | 0.0 | 0.0 | 0.00 | 0.00 | 0.00 | 86 | 1013.8 |
| 20260831112324 | 80 | 0 | 0.0 | 0.0 | 0.00 | 0.00 | 0.00 | 86 | 1013.8 |
| 20260831112225 | 80 | 0 | 0.0 | 0.0 | 0.00 | 0.00 | 0.00 | 86 | 1013.8 |
| 20260831112126 | 80 | 0 | 0.0 | 0.0 | 0.00 | 0.00 | 0.00 | 86 | 1013.8 |
| 20260831112025 | 81 | 0 | 0.0 | 0.0 | 0.00 | 0.00 | 0.00 | 86 | 1013.8 |
| 20260831111925 | 81 | 0 | 0.0 | 0.0 | 0.00 | 0.00 | 0.00 | 86 | 1013.8 |
| 20260831111825 | 81 | 0 | 0.0 | 0.0 | 0.00 | 0.00 | 0.00 | 86 | 1013.8 |
| 20260831111724 | 81 | 0 | 0.0 | 0.0 | 0.00 | 0.00 | 0.00 | 86 | 1013.8 |
| 20260831111624 | 81 | 0 | 0.0 | 0.0 | 0.00 | 0.00 | 0.00 | 86 | 1013.8 |
| 20260831111525 | 81 | 0 | 0.0 | 0.0 | 0.00 | 0.00 | 0.00 | 85 | 1013.9 |
| 20260831111425 | 81 | 0 | 0.0 | 0.0 | 0.00 | 0.00 | 0.00 | 85 | 1013.8 |
| 20260831111324 | 81 | 0 | 0.0 | 0.0 | 0.00 | 0.00 | 0.00 | 85 | 1013.8 |
| 20260831111226 | 81 | 0 | 0.0 | 0.0 | 0.00 | 0.00 | 0.00 | 85 | 1013.9 |
| 20260831111127 | 81 | 0 | 0.0 | 0.0 | 0.00 | 0.00 | 0.00 | 85 | 1013.9 |
| 20260831111026 | 81 | 0 | 0.0 | 0.0 | 0.00 | 0.00 | 0.00 | 85 | 1013.8 |
| 20260831110924 | 81 | 0 | 0.0 | 0.0 | 0.00 | 0.00 | 0.00 | 86 | 1013.9 |
| 20260831110826 | 81 | 0 | 0.0 | 0.0 | 0.00 | 0.00 | 0.00 | 86 | 1013.8 |
| 20260831110726 | 81 | 0 | 0.0 | 0.0 | 0.00 | 0.00 | 0.00 | 86 | 1013.8 |
| 20260831110624 | 81 | 0 | 0.0 | 0.0 | 0.00 | 0.00 | 0.00 | 86 | 1013.8 |
| 20260831110525 | 81 | 0 | 0.0 | 0.0 | 0.00 | 0.00 | 0.00 | 86 | 1013.9 |
| 20260831110424 | 81 | 0 | 0.0 | 0.0 | 0.00 | 0.00 | 0.00 | 86 | 1013.9 |
| 20260831110325 | 81 | 0 | 0.0 | 0.0 | 0.00 | 0.00 | 0.00 | 86 | 1013.9 |
| 20260831110225 | 81 | 0 | 0.0 | 0.0 | 0.00 | 0.00 | 0.00 | 86 | 1013.9 |
| 20260831110126 | 81 | 0 | 0.0 | 0.0 | 0.00 | 0.00 | 0.00 | 86 | 1013.9 |
| 20260831110026 | 81 | 0 | 0.0 | 0.0 | 0.00 | 0.00 | 0.00 | 86 | 1013.9 |
| 20260831105924 | 81 | 0 | 0.0 | 0.0 | 0.00 | 0.00 | 0.00 | 86 | 1013.9 |
| 20260831105825 | 81 | 0 | 0.0 | 0.0 | 0.00 | 0.00 | 0.00 | 86 | 1013.9 |
| 20260831105724 | 81 | 0 | 0.0 | 0.0 | 0.00 | 0.00 | 0.00 | 86 | 1013.9 |
| 20260831105623 | 81 | 0 | 0.0 | 0.0 | 0.00 | 0.00 | 0.00 | 86 | 1014.0 |
| 20260831105524 | 81 | 0 | 0.0 | 0.0 | 0.00 | 0.00 | 0.00 | 86 | 1013.9 |
| 20260831105423 | 81 | 0 | 0.0 | 0.0 | 0.00 | 0.00 | 0.00 | 86 | 1013.9 |
| 20260831105324 | 81 | 0 | 0.0 | 0.0 | 0.00 | 0.00 | 0.00 | 86 | 1013.9 |
| 20260831105225 | 81 | 0 | 0.0 | 0.0 | 0.00 | 0.00 | 0.00 | 86 | 1013.9 |
| 20260831105124 | 81 | 0 | 0.0 | 0.0 | 0.00 | 0.00 | 0.00 | 86 | 1013.9 |
| 20260831105025 | 81 | 0 | 0.0 | 0.0 | 0.00 | 0.00 | 0.00 | 86 | 1013.9 |
| 20260831104924 | 81 | 0 | 0.0 | 0.0 | 0.00 | 0.00 | 0.00 | 86 | 1013.8 |
| 20260831104825 | 81 | 0 | 0.0 | 0.0 | 0.00 | 0.00 | 0.00 | 86 | 1013.8 |
| 20260831104724 | 81 | 0 | 0.0 | 0.0 | 0.00 | 0.00 | 0.00 | 86 | 1013.8 |
| 20260831104625 | 81 | 0 | 0.0 | 0.0 | 0.00 | 0.00 | 0.00 | 86 | 1013.8 |
| 20260831104526 | 81 | 0 | 0.0 | 0.0 | 0.00 | 0.00 | 0.00 | 86 | 1013.8 |
| 20260831104423 | 81 | 0 | 0.0 | 0.0 | 0.00 | 0.00 | 0.00 | 86 | 1013.8 |
| 20260831104323 | 81 | 0 | 0.0 | 0.0 | 0.00 | 0.00 | 0.00 | 86 | 1013.8 |
| 20260831104224 | 81 | 0 | 0.0 | 0.0 | 0.00 | 0.00 | 0.00 | 87 | 1013.8 |
| 20260831104125 | 81 | 0 | 0.0 | 0.0 | 0.00 | 0.00 | 0.00 | 87 | 1013.8 |
| 20260831104025 | 80 | 0 | 0.0 | 0.0 | 0.00 | 0.00 | 0.00 | 87 | 1013.8 |
| 20260831103925 | 80 | 0 | 0.0 | 0.0 | 0.00 | 0.00 | 0.00 | 87 | 1013.9 |
| 20260831103824 | 80 | 0 | 0.0 | 0.0 | 0.00 | 0.00 | 0.00 | 87 | 1013.8 |
| 20260831103725 | 80 | 0 | 0.0 | 0.0 | 0.00 | 0.00 | 0.00 | 87 | 1013.9 |
| 20260831103623 | 80 | 0 | 0.0 | 0.0 | 0.00 | 0.00 | 0.00 | 87 | 1013.8 |
| 20260831103525 | 80 | 0 | 0.0 | 0.0 | 0.00 | 0.00 | 0.00 | 87 | 1013.9 |
| 20260831103424 | 80 | 0 | 0.0 | 0.0 | 0.00 | 0.00 | 0.00 | 87 | 1013.9 |
| 20260831103324 | 81 | 0 | 0.0 | 0.0 | 0.00 | 0.00 | 0.00 | 86 | 1013.9 |
| 20260831103225 | 81 | 0 | 0.0 | 0.0 | 0.00 | 0.00 | 0.00 | 86 | 1013.9 |
| 20260831103124 | 81 | 0 | 0.0 | 0.0 | 0.00 | 0.00 | 0.00 | 86 | 1013.9 |
| 20260831103026 | 81 | 0 | 0.0 | 0.0 | 0.00 | 0.00 | 0.00 | 86 | 1013.9 |
| 20260831102925 | 81 | 0 | 0.0 | 0.0 | 0.00 | 0.00 | 0.00 | 86 | 1013.9 |
| 20260831102825 | 81 | 0 | 0.0 | 0.0 | 0.00 | 0.00 | 0.00 | 86 | 1013.9 |
| 20260831102723 | 81 | 0 | 0.0 | 0.0 | 0.00 | 0.00 | 0.00 | 86 | 1013.9 |
| 20260831102625 | 81 | 0 | 0.0 | 0.0 | 0.00 | 0.00 | 0.00 | 86 | 1013.9 |
| 20260831102525 | 81 | 0 | 0.0 | 0.0 | 0.00 | 0.00 | 0.00 | 86 | 1013.9 |
| 20260831102426 | 81 | 0 | 0.0 | 0.0 | 0.00 | 0.00 | 0.00 | 86 | 1013.9 |
| 20260831102324 | 81 | 0 | 0.0 | 0.0 | 0.00 | 0.00 | 0.00 | 86 | 1013.9 |
| 20260831102223 | 81 | 0 | 0.0 | 0.0 | 0.00 | 0.00 | 0.00 | 87 | 1013.8 |
| 20260831102124 | 81 | 0 | 0.0 | 0.0 | 0.00 | 0.00 | 0.00 | 87 | 1013.9 |
| 20260831102025 | 81 | 0 | 0.0 | 0.0 | 0.00 | 0.00 | 0.00 | 86 | 1013.9 |
| 20260831101924 | 81 | 0 | 0.0 | 0.0 | 0.00 | 0.00 | 0.00 | 86 | 1013.9 |
| 20260831101823 | 81 | 0 | 0.0 | 0.0 | 0.00 | 0.00 | 0.00 | 86 | 1014.0 |
| 20260831101725 | 81 | 0 | 0.0 | 0.0 | 0.00 | 0.00 | 0.00 | 86 | 1013.9 |
| 20260831101624 | 81 | 0 | 0.0 | 0.0 | 0.00 | 0.00 | 0.00 | 87 | 1013.9 |
| 20260831101525 | 81 | 0 | 0.0 | 0.0 | 0.00 | 0.00 | 0.00 | 87 | 1013.9 |
| 20260831101424 | 81 | 0 | 0.0 | 0.0 | 0.00 | 0.00 | 0.00 | 87 | 1013.9 |
| 20260831101325 | 81 | 0 | 0.0 | 0.0 | 0.00 | 0.00 | 0.00 | 87 | 1014.0 |
| 20260831101224 | 81 | 0 | 0.0 | 0.0 | 0.00 | 0.00 | 0.00 | 87 | 1013.9 |
| 20260831101124 | 81 | 0 | 0.0 | 0.0 | 0.00 | 0.00 | 0.00 | 87 | 1014.0 |
| 20260831101023 | 81 | 0 | 0.0 | 0.0 | 0.00 | 0.00 | 0.00 | 87 | 1014.0 |
| 20260831100925 | 81 | 0 | 0.0 | 0.0 | 0.00 | 0.00 | 0.00 | 86 | 1014.0 |
| 20260831100824 | 81 | 0 | 0.0 | 0.0 | 0.00 | 0.00 | 0.00 | 86 | 1014.0 |
| 20260831100723 | 81 | 0 | 0.0 | 0.0 | 0.00 | 0.00 | 0.00 | 86 | 1014.0 |
| 20260831100624 | 81 | 0 | 0.0 | 0.0 | 0.00 | 0.00 | 0.00 | 86 | 1014.1 |
| 20260831100524 | 81 | 0 | 0.0 | 0.0 | 0.00 | 0.00 | 0.00 | 86 | 1014.0 |
| 20260831100425 | 81 | 0 | 0.0 | 0.0 | 0.00 | 0.00 | 0.00 | 86 | 1014.0 |
| 20260831100323 | 81 | 0 | 0.0 | 0.0 | 0.00 | 0.00 | 0.00 | 86 | 1014.0 |
| 20260831100223 | 81 | 0 | 0.0 | 0.0 | 0.00 | 0.00 | 0.00 | 86 | 1014.0 |
| 20260831100124 | 81 | 0 | 0.0 | 0.0 | 0.00 | 0.00 | 0.00 | 86 | 1014.0 |
| 20260831100023 | 81 | 0 | 0.0 | 0.0 | 0.00 | 0.00 | 0.00 | 86 | 1014.0 |
| 20260831095922 | 81 | 0 | 0.0 | 0.0 | 0.00 | 0.00 | 0.00 | 86 | 1014.0 |
| 20260831095823 | 81 | 0 | 0.0 | 0.0 | 0.00 | 0.00 | 0.00 | 86 | 1014.0 |
| 20260831095724 | 81 | 0 | 0.0 | 0.0 | 0.00 | 0.00 | 0.00 | 86 | 1013.9 |
| 20260831095623 | 81 | 0 | 0.0 | 0.0 | 0.00 | 0.00 | 0.00 | 86 | 1014.0 |
| 20260831095524 | 81 | 0 | 0.0 | 0.0 | 0.00 | 0.00 | 0.00 | 86 | 1014.0 |
| 20260831095423 | 81 | 0 | 0.0 | 0.0 | 0.00 | 0.00 | 0.00 | 86 | 1014.0 |
| 20260831095323 | 81 | 0 | 0.0 | 0.0 | 0.00 | 0.00 | 0.00 | 86 | 1013.9 |
| 20260831095224 | 81 | 0 | 0.0 | 0.0 | 0.00 | 0.00 | 0.00 | 86 | 1013.9 |
| 20260831095123 | 81 | 0 | 0.0 | 0.0 | 0.00 | 0.00 | 0.00 | 86 | 1013.9 |
| 20260831095023 | 81 | 0 | 0.0 | 0.0 | 0.00 | 0.00 | 0.00 | 86 | 1013.9 |
| 20260831094923 | 81 | 0 | 0.0 | 0.0 | 0.00 | 0.00 | 0.00 | 86 | 1013.9 |
| 20260831094823 | 81 | 0 | 0.0 | 0.0 | 0.00 | 0.00 | 0.00 | 86 | 1013.9 |
| 20260831094724 | 81 | 0 | 0.0 | 0.0 | 0.00 | 0.00 | 0.00 | 86 | 1013.9 |
| 20260831094623 | 81 | 0 | 0.0 | 0.0 | 0.00 | 0.00 | 0.00 | 86 | 1013.9 |
| 20260831094525 | 81 | 0 | 0.0 | 0.0 | 0.00 | 0.00 | 0.00 | 86 | 1013.9 |
| 20260831094424 | 81 | 0 | 0.0 | 0.0 | 0.00 | 0.00 | 0.00 | 86 | 1013.9 |
| 20260831094323 | 81 | 0 | 0.0 | 0.0 | 0.00 | 0.00 | 0.00 | 86 | 1013.9 |
| 20260831094223 | 81 | 0 | 0.0 | 0.0 | 0.00 | 0.00 | 0.00 | 86 | 1013.9 |
| 20260831094124 | 81 | 0 | 0.0 | 0.0 | 0.00 | 0.00 | 0.00 | 86 | 1013.8 |
| 20260831094023 | 81 | 0 | 0.0 | 0.0 | 0.00 | 0.00 | 0.00 | 86 | 1013.9 |
| 20260831093922 | 81 | 0 | 0.0 | 0.0 | 0.00 | 0.00 | 0.00 | 86 | 1013.9 |
| 20260831093823 | 81 | 0 | 0.0 | 0.0 | 0.00 | 0.00 | 0.00 | 86 | 1013.9 |
| 20260831093723 | 81 | 0 | 0.0 | 0.0 | 0.00 | 0.00 | 0.00 | 86 | 1013.9 |
| 20260831093623 | 81 | 0 | 0.0 | 0.0 | 0.00 | 0.00 | 0.00 | 86 | 1013.9 |
| 20260831093523 | 81 | 0 | 0.0 | 0.0 | 0.00 | 0.00 | 0.00 | 86 | 1013.7 |
| 20260831093421 | 81 | 0 | 0.0 | 0.0 | 0.00 | 0.00 | 0.00 | 86 | 1013.9 |
| 20260831093324 | 81 | 0 | 0.0 | 0.0 | 0.00 | 0.00 | 0.00 | 85 | 1013.9 |
| 20260831093223 | 81 | 0 | 0.0 | 0.0 | 0.00 | 0.00 | 0.00 | 85 | 1013.8 |
| 20260831093123 | 81 | 0 | 0.0 | 0.0 | 0.00 | 0.00 | 0.00 | 85 | 1013.8 |
| 20260831093022 | 81 | 0 | 0.0 | 0.0 | 0.00 | 0.00 | 0.00 | 85 | 1013.8 |
| 20260831092921 | 81 | 0 | 0.0 | 0.0 | 0.00 | 0.00 | 0.00 | 85 | 1013.8 |
| 20260831092823 | 81 | 0 | 0.0 | 0.0 | 0.00 | 0.00 | 0.00 | 85 | 1013.8 |
| 20260831092721 | 81 | 0 | 0.0 | 0.0 | 0.00 | 0.00 | 0.00 | 85 | 1013.8 |
| 20260831092622 | 81 | 0 | 0.0 | 0.0 | 0.00 | 0.00 | 0.00 | 85 | 1013.7 |
| 20260831092521 | 82 | 0 | 0.0 | 0.0 | 0.00 | 0.00 | 0.00 | 85 | 1013.7 |
| 20260831092424 | 81 | 0 | 0.0 | 0.0 | 0.00 | 0.00 | 0.00 | 85 | 1013.8 |
| 20260831092322 | 81 | 0 | 0.0 | 0.0 | 0.00 | 0.00 | 0.00 | 85 | 1013.7 |
| 20260831092223 | 81 | 0 | 0.0 | 0.0 | 0.00 | 0.00 | 0.00 | 85 | 1013.7 |
| 20260831092123 | 81 | 0 | 0.0 | 0.0 | 0.00 | 0.00 | 0.00 | 85 | 1013.7 |
| 20260831092022 | 81 | 0 | 0.0 | 0.0 | 0.00 | 0.00 | 0.00 | 85 | 1013.8 |
| 20260831091921 | 81 | 0 | 0.0 | 0.0 | 0.00 | 0.00 | 0.00 | 85 | 1013.7 |
| 20260831091821 | 81 | 0 | 0.0 | 0.0 | 0.00 | 0.00 | 0.00 | 85 | 1013.7 |
| 20260831091723 | 81 | 0 | 0.0 | 0.0 | 0.00 | 0.00 | 0.00 | 86 | 1013.7 |
| 20260831091623 | 81 | 0 | 0.0 | 0.0 | 0.00 | 0.00 | 0.00 | 86 | 1013.7 |
| 20260831091522 | 81 | 0 | 0.0 | 0.0 | 0.00 | 0.00 | 0.00 | 85 | 1013.6 |
| 20260831091423 | 81 | 0 | 0.0 | 0.0 | 0.00 | 0.00 | 0.00 | 85 | 1013.6 |
| 20260831091323 | 81 | 0 | 0.0 | 0.0 | 0.00 | 0.00 | 0.00 | 85 | 1013.6 |
| 20260831091223 | 81 | 0 | 0.0 | 0.0 | 0.00 | 0.00 | 0.00 | 84 | 1013.6 |
| 20260831091122 | 81 | 0 | 0.0 | 0.0 | 0.00 | 0.00 | 0.00 | 84 | 1013.6 |
| 20260831091023 | 81 | 0 | 0.0 | 0.0 | 0.00 | 0.00 | 0.00 | 84 | 1013.7 |
| 20260831090923 | 81 | 0 | 0.0 | 0.0 | 0.00 | 0.00 | 0.00 | 84 | 1013.7 |
| 20260831090823 | 81 | 0 | 0.0 | 0.0 | 0.00 | 0.00 | 0.00 | 84 | 1013.7 |
| 20260831090723 | 82 | 0 | 0.0 | 0.0 | 0.00 | 0.00 | 0.00 | 84 | 1013.7 |
| 20260831090624 | 82 | 0 | 0.0 | 0.0 | 0.00 | 0.00 | 0.00 | 84 | 1013.7 |
| 20260831090521 | 82 | 0 | 0.0 | 0.0 | 0.00 | 0.00 | 0.00 | 84 | 1013.8 |
| 20260831090421 | 82 | 0 | 0.0 | 0.0 | 0.00 | 0.00 | 0.00 | 84 | 1013.7 |
| 20260831090320 | 82 | 0 | 0.0 | 0.0 | 0.00 | 0.00 | 0.00 | 84 | 1013.7 |
| 20260831090217 | 82 | 0 | 0.0 | 0.0 | 0.00 | 0.00 | 0.00 | 84 | 1013.7 |
| 20260831090108 | 82 | 0 | 0.0 | 0.0 | 0.00 | 0.00 | 0.00 | 84 | 1013.7 |
| 20260831090004 | 82 | 0 | 0.0 | 0.0 | 0.00 | 0.00 | 0.00 | 84 | 1013.8 |
| 20260831085903 | 82 | 0 | 0.0 | 0.0 | 0.00 | 0.00 | 0.00 | 84 | 1013.8 |
| 20260831085803 | 82 | 0 | 0.0 | 0.0 | 0.00 | 0.00 | 0.00 | 84 | 1013.8 |
| 20260831085703 | 82 | 0 | 0.0 | 0.0 | 0.00 | 0.00 | 0.00 | 84 | 1013.8 |
| 20260831085602 | 82 | 0 | 0.0 | 0.0 | 0.00 | 0.00 | 0.00 | 84 | 1013.8 |
| 20260831085504 | 82 | 0 | 0.0 | 0.0 | 0.00 | 0.00 | 0.00 | 84 | 1013.8 |
| 20260831085402 | 82 | 0 | 0.0 | 0.0 | 0.00 | 0.00 | 0.00 | 85 | 1013.8 |
| 20260831085306 | 82 | 0 | 0.0 | 0.0 | 0.00 | 0.00 | 0.00 | 85 | 1013.9 |
| 20260831085203 | 82 | 0 | 0.0 | 0.0 | 0.00 | 0.00 | 0.00 | 85 | 1013.9 |
| 20260831085104 | 82 | 0 | 0.0 | 0.0 | 0.00 | 0.00 | 0.00 | 85 | 1013.9 |
| 20260831084931 | 82 | 0 | 0.0 | 0.0 | 0.00 | 0.00 | 0.00 | 85 | 1013.9 |
| 20260831084832 | 82 | 0 | 0.0 | 0.0 | 0.00 | 0.00 | 0.00 | 85 | 1013.9 |
| 20260831084732 | 82 | 0 | 0.0 | 0.0 | 0.00 | 0.00 | 0.00 | 85 | 1013.9 |
| 20260831084632 | 82 | 0 | 0.0 | 0.0 | 0.00 | 0.00 | 0.00 | 85 | 1013.9 |
| 20260831084532 | 82 | 0 | 0.0 | 0.0 | 0.00 | 0.00 | 0.00 | 85 | 1013.9 |
| 20260831084430 | 81 | 0 | 0.0 | 0.0 | 0.00 | 0.00 | 0.00 | 85 | 1013.9 |
| 20260831084333 | 81 | 0 | 0.0 | 0.0 | 0.00 | 0.00 | 0.00 | 85 | 1013.9 |
| 20260831084232 | 81 | 0 | 0.0 | 0.0 | 0.00 | 0.00 | 0.00 | 85 | 1013.9 |
| 20260831084132 | 81 | 0 | 0.0 | 0.0 | 0.00 | 0.00 | 0.00 | 85 | 1013.9 |
| 20260831084031 | 81 | 0 | 0.0 | 0.0 | 0.00 | 0.00 | 0.00 | 85 | 1013.9 |
| 20260831083932 | 81 | 0 | 0.0 | 0.0 | 0.00 | 0.00 | 0.00 | 85 | 1013.9 |
| 20260831083831 | 81 | 0 | 0.0 | 0.0 | 0.00 | 0.00 | 0.00 | 85 | 1013.9 |
| 20260831083731 | 81 | 0 | 0.0 | 0.0 | 0.00 | 0.00 | 0.00 | 85 | 1013.9 |
| 20260831083632 | 81 | 0 | 0.0 | 0.0 | 0.00 | 0.00 | 0.00 | 85 | 1013.9 |
| 20260831083531 | 81 | 0 | 0.0 | 0.0 | 0.00 | 0.00 | 0.00 | 85 | 1013.9 |
| 20260831083430 | 81 | 0 | 0.0 | 0.0 | 0.00 | 0.00 | 0.00 | 85 | 1013.9 |
| 20260831083333 | 81 | 0 | 0.0 | 0.0 | 0.00 | 0.00 | 0.00 | 85 | 1014.0 |
| 20260831083232 | 81 | 0 | 0.0 | 0.0 | 0.00 | 0.00 | 0.00 | 85 | 1014.0 |
| 20260831083132 | 81 | 0 | 0.0 | 0.0 | 0.00 | 0.00 | 0.00 | 85 | 1014.0 |
| 20260831083032 | 81 | 0 | 0.0 | 0.0 | 0.00 | 0.00 | 0.00 | 85 | 1013.9 |
| 20260831082932 | 81 | 0 | 0.0 | 0.0 | 0.00 | 0.00 | 0.00 | 85 | 1014.1 |
| 20260831082832 | 82 | 0 | 0.0 | 0.0 | 0.00 | 0.00 | 0.00 | 85 | 1013.9 |
| 20260831082732 | 82 | 0 | 0.0 | 0.0 | 0.00 | 0.00 | 0.00 | 85 | 1014.0 |
| 20260831082632 | 82 | 0 | 0.0 | 0.0 | 0.00 | 0.00 | 0.00 | 85 | 1014.0 |
| 20260831082533 | 82 | 0 | 0.0 | 0.0 | 0.00 | 0.00 | 0.00 | 85 | 1013.9 |
| 20260831082432 | 82 | 0 | 0.0 | 0.0 | 0.00 | 0.00 | 0.00 | 85 | 1014.0 |
| 20260831082331 | 82 | 0 | 0.0 | 0.0 | 0.00 | 0.00 | 0.00 | 85 | 1013.9 |
| 20260831082232 | 81 | 0 | 0.0 | 0.0 | 0.00 | 0.00 | 0.00 | 85 | 1014.0 |
| 20260831082131 | 81 | 0 | 0.0 | 0.0 | 0.00 | 0.00 | 0.00 | 85 | 1014.0 |
| 20260831082033 | 81 | 0 | 0.0 | 0.0 | 0.00 | 0.00 | 0.00 | 85 | 1014.0 |
| 20260831081932 | 81 | 0 | 0.0 | 0.0 | 0.00 | 0.00 | 0.00 | 85 | 1014.0 |
| 20260831081832 | 81 | 0 | 0.0 | 0.0 | 0.00 | 0.00 | 0.00 | 85 | 1014.0 |
| 20260831081733 | 81 | 0 | 0.0 | 0.0 | 0.00 | 0.00 | 0.00 | 85 | 1014.0 |
| 20260831081631 | 81 | 0 | 0.0 | 0.0 | 0.00 | 0.00 | 0.00 | 85 | 1013.9 |
| 20260831081532 | 82 | 0 | 0.0 | 0.0 | 0.00 | 0.00 | 0.00 | 85 | 1013.9 |
| 20260831081431 | 82 | 0 | 0.0 | 0.0 | 0.00 | 0.00 | 0.00 | 85 | 1014.0 |
| 20260831081330 | 82 | 0 | 0.0 | 0.0 | 0.00 | 0.00 | 0.00 | 85 | 1014.0 |
| 20260831081233 | 82 | 0 | 0.0 | 0.0 | 0.00 | 0.00 | 0.00 | 85 | 1014.0 |
| 20260831081132 | 82 | 0 | 0.0 | 0.0 | 0.00 | 0.00 | 0.00 | 84 | 1014.0 |
| 20260831081033 | 82 | 0 | 0.0 | 0.0 | 0.00 | 0.00 | 0.00 | 84 | 1014.0 |
| 20260831080931 | 82 | 0 | 0.0 | 0.0 | 0.00 | 0.00 | 0.00 | 84 | 1014.0 |
| 20260831080832 | 82 | 0 | 0.0 | 0.0 | 0.00 | 0.00 | 0.00 | 84 | 1014.1 |
| 20260831080731 | 82 | 0 | 0.0 | 0.0 | 0.00 | 0.00 | 0.00 | 84 | 1014.0 |
| 20260831080631 | 82 | 0 | 0.0 | 0.0 | 0.00 | 0.00 | 0.00 | 84 | 1014.0 |
| 20260831080532 | 82 | 0 | 0.0 | 0.0 | 0.00 | 0.00 | 0.00 | 84 | 1014.0 |
| 20260831080432 | 82 | 0 | 0.0 | 0.0 | 0.00 | 0.00 | 0.00 | 84 | 1014.0 |
| 20260831080330 | 82 | 0 | 0.0 | 0.0 | 0.00 | 0.00 | 0.00 | 84 | 1014.0 |
| 20260831080222 | 82 | 0 | 0.0 | 0.0 | 0.00 | 0.00 | 0.00 | 84 | 1014.0 |
| 20260831080122 | 82 | 0 | 0.0 | 0.0 | 0.00 | 0.00 | 0.00 | 84 | 1014.0 |
| 20260831080021 | 82 | 0 | 0.0 | 0.0 | 0.00 | 0.00 | 0.00 | 84 | 1014.1 |
| 20260831075921 | 82 | 0 | 0.0 | 0.0 | 0.00 | 0.00 | 0.00 | 84 | 1014.1 |
| 20260831075822 | 82 | 0 | 0.0 | 2.0 | 0.00 | 0.00 | 0.00 | 84 | 1014.0 |
| 20260831075721 | 82 | 0 | 0.0 | 3.0 | 0.00 | 0.00 | 0.00 | 84 | 1014.0 |
| 20260831075619 | 82 | 0 | 0.0 | 3.0 | 0.00 | 0.00 | 0.00 | 84 | 1014.0 |
| 20260831075520 | 82 | 0 | 0.0 | 3.0 | 0.00 | 0.00 | 0.00 | 84 | 1014.0 |
| 20260831075420 | 82 | 0 | 0.0 | 3.0 | 0.00 | 0.00 | 0.00 | 84 | 1014.0 |
| 20260831075319 | 82 | 0 | 0.0 | 3.0 | 0.00 | 0.00 | 0.00 | 84 | 1014.0 |
| 20260831075220 | 82 | 0 | 0.0 | 3.0 | 0.00 | 0.00 | 0.00 | 84 | 1014.0 |
| 20260831075119 | 82 | 0 | 0.0 | 3.0 | 0.00 | 0.00 | 0.00 | 84 | 1014.0 |
| 20260831075020 | 82 | 0 | 0.0 | 3.0 | 0.00 | 0.00 | 0.00 | 84 | 1014.0 |
| 20260831074921 | 82 | 0 | 1.0 | 3.0 | 0.00 | 0.00 | 0.00 | 84 | 1014.0 |
| 20260831074819 | 82 | 0 | 1.0 | 3.0 | 0.00 | 0.00 | 0.00 | 84 | 1014.0 |
| 20260831074721 | 82 | 0 | 2.0 | 2.0 | 0.00 | 0.00 | 0.00 | 84 | 1014.1 |
| 20260831074620 | 82 | 0 | 1.0 | 3.0 | 0.00 | 0.00 | 0.00 | 84 | 1014.0 |
| 20260831074521 | 82 | 0 | 1.0 | 3.0 | 0.00 | 0.00 | 0.00 | 84 | 1013.9 |
| 20260831074419 | 82 | 0 | 1.0 | 3.0 | 0.00 | 0.00 | 0.00 | 84 | 1014.0 |
| 20260831074319 | 82 | 0 | 0.0 | 3.0 | 0.00 | 0.00 | 0.00 | 84 | 1013.9 |
| 20260831074220 | 82 | 0 | 0.0 | 3.0 | 0.00 | 0.00 | 0.00 | 84 | 1014.0 |
| 20260831074120 | 82 | 0 | 0.0 | 3.0 | 0.00 | 0.00 | 0.00 | 84 | 1013.9 |
| 20260831074019 | 82 | 0 | 0.0 | 3.0 | 0.00 | 0.00 | 0.00 | 84 | 1014.0 |
| 20260831073920 | 82 | 0 | 0.0 | 3.0 | 0.00 | 0.00 | 0.00 | 84 | 1014.0 |
| 20260831073821 | 82 | 0 | 2.0 | 3.0 | 0.00 | 0.00 | 0.00 | 84 | 1014.0 |
| 20260831073720 | 82 | 0 | 2.0 | 3.0 | 0.00 | 0.00 | 0.00 | 84 | 1014.0 |
| 20260831073620 | 82 | 0 | 2.0 | 3.0 | 0.00 | 0.00 | 0.00 | 84 | 1013.9 |
| 20260831073519 | 82 | 0 | 2.0 | 3.0 | 0.00 | 0.00 | 0.00 | 84 | 1014.0 |
| 20260831073422 | 82 | 0 | 2.0 | 3.0 | 0.00 | 0.00 | 0.00 | 84 | 1014.1 |
| 20260831073321 | 82 | 0 | 2.0 | 3.0 | 0.00 | 0.00 | 0.00 | 83 | 1014.0 |
| 20260831073220 | 82 | 0 | 0.0 | 0.0 | 0.00 | 0.00 | 0.00 | 83 | 1014.1 |
| 20260831073120 | 82 | 0 | 0.0 | 0.0 | 0.00 | 0.00 | 0.00 | 83 | 1014.0 |
| 20260831073021 | 82 | 0 | 0.0 | 0.0 | 0.00 | 0.00 | 0.00 | 83 | 1014.0 |
| 20260831072920 | 82 | 0 | 0.0 | 0.0 | 0.00 | 0.00 | 0.00 | 83 | 1014.0 |
| 20260831072804 | 0 | 0.0 | 0.0 | 0.00 | 0.00 | 0.00 | 1014.0 | ||
| 20260831072703 | 0 | 0.0 | 0.0 | 0.00 | 0.00 | 0.00 | 1014.0 | ||
| 20260831072603 | 0 | 0.0 | 0.0 | 0.00 | 0.00 | 0.00 | 1014.0 | ||
| 20260831072433 | 82 | 0 | 0.0 | 0.0 | 0.00 | 0.00 | 0.00 | 83 | 1014.0 |
| 20260831072332 | 82 | 0 | 0.0 | 0.0 | 0.00 | 0.00 | 0.00 | 83 | 1014.0 |
| 20260831072231 | 82 | 0 | 0.0 | 0.0 | 0.00 | 0.00 | 0.00 | 83 | 1014.0 |
| 20260831072132 | 82 | 0 | 0.0 | 0.0 | 0.00 | 0.00 | 0.00 | 83 | 1014.0 |
| 20260831072032 | 82 | 0 | 0.0 | 0.0 | 0.00 | 0.00 | 0.00 | 83 | 1014.1 |
| 20260831071931 | 82 | 0 | 0.0 | 0.0 | 0.00 | 0.00 | 0.00 | 83 | 1014.0 |
| 20260831071832 | 82 | 0 | 0.0 | 2.0 | 0.00 | 0.00 | 0.00 | 83 | 1014.0 |
| 20260831071732 | 82 | 0 | 0.0 | 2.0 | 0.00 | 0.00 | 0.00 | 83 | 1014.0 |
| 20260831071616 | 82 | 0 | 0.0 | 3.0 | 0.00 | 0.00 | 0.00 | 83 | 1014.0 |
| 20260831071517 | 82 | 0 | 0.0 | 3.0 | 0.00 | 0.00 | 0.00 | 83 | 1014.0 |
| 20260831071416 | 82 | 0 | 0.0 | 3.0 | 0.00 | 0.00 | 0.00 | 83 | 1014.1 |
| 20260831071316 | 82 | 0 | 0.0 | 3.0 | 0.00 | 0.00 | 0.00 | 83 | 1014.0 |
| 20260831071216 | 82 | 0 | 0.0 | 3.0 | 0.00 | 0.00 | 0.00 | 83 | 1014.0 |
| 20260831071117 | 82 | 0 | 0.0 | 3.0 | 0.00 | 0.00 | 0.00 | 83 | 1014.0 |
| 20260831071016 | 82 | 0 | 1.0 | 3.0 | 0.00 | 0.00 | 0.00 | 83 | 1014.0 |
| 20260831070915 | 82 | 0 | 1.0 | 3.0 | 0.00 | 0.00 | 0.00 | 83 | 1014.0 |
| 20260831070816 | 82 | 0 | 1.0 | 3.0 | 0.00 | 0.00 | 0.00 | 83 | 1014.1 |
| 20260831070717 | 82 | 0 | 1.0 | 3.0 | 0.00 | 0.00 | 0.00 | 83 | 1014.1 |
| 20260831070615 | 82 | 0 | 0.0 | 1.0 | 0.00 | 0.00 | 0.00 | 83 | 1014.1 |
| 20260831070516 | 82 | 0 | 1.0 | 1.0 | 0.00 | 0.00 | 0.00 | 83 | 1014.0 |
| 20260831070416 | 0 | 0.0 | 0.0 | 0.00 | 0.00 | 0.00 | 1014.1 | ||
| 20260831070316 | 0 | 0.0 | 0.0 | 0.00 | 0.00 | 0.00 | 1014.2 | ||
| 20260831070214 | 0 | 0.0 | 0.0 | 0.00 | 0.00 | 0.00 | 1014.2 | ||
| 20260831070115 | 0 | 0.0 | 0.0 | 0.00 | 0.00 | 0.00 | 1014.1 | ||
| 20260831070014 | 0 | 0.0 | 0.0 | 0.00 | 0.00 | 0.00 | 1014.1 | ||
| 20260831065914 | 0 | 0.0 | 0.0 | 0.00 | 0.00 | 0.00 | 1014.1 | ||
| 20260831065815 | 0 | 0.0 | 0.0 | 0.00 | 0.00 | 0.00 | 1014.1 | ||
| 20260831065713 | 0 | 0.0 | 0.0 | 0.00 | 0.00 | 0.00 | 1014.1 | ||
| 20260831065613 | 0 | 0.0 | 0.0 | 0.00 | 0.00 | 0.00 | 1014.1 | ||
| 20260831065512 | 0 | 0.0 | 0.0 | 0.00 | 0.00 | 0.00 | 1014.1 | ||
| 20260831065404 | 0 | 0.0 | 0.0 | 0.00 | 0.00 | 0.00 | 1014.2 | ||
| 20260831065306 | 0 | 0.0 | 0.0 | 0.00 | 0.00 | 0.00 | 1014.1 | ||
| 20260831065203 | 0 | 0.0 | 0.0 | 0.00 | 0.00 | 0.00 | 1014.2 | ||
| 20260831065103 | 0 | 0.0 | 0.0 | 0.00 | 0.00 | 0.00 | 1014.2 | ||
| 20260831065003 | 0 | 0.0 | 0.0 | 0.00 | 0.00 | 0.00 | 1014.3 | ||
| 20260831064903 | 0 | 0.0 | 0.0 | 0.00 | 0.00 | 0.00 | 1014.3 | ||
| 20260831064803 | 0 | 0.0 | 0.0 | 0.00 | 0.00 | 0.00 | 1014.2 | ||
| 20260831064704 | 0 | 0.0 | 0.0 | 0.00 | 0.00 | 0.00 | 1014.2 | ||
| 20260831064603 | 83 | 0 | 1.0 | 0.0 | 0.00 | 0.00 | 0.00 | 83 | 1014.3 |
| 20260831064503 | 83 | 0 | 1.0 | 0.0 | 0.00 | 0.00 | 0.00 | 83 | 1014.2 |
| 20260831064404 | 83 | 0 | 1.0 | 2.0 | 0.00 | 0.00 | 0.00 | 83 | 1014.2 |
| 20260831064302 | 83 | 0 | 1.0 | 3.0 | 0.00 | 0.00 | 0.00 | 83 | 1014.2 |
| 20260831064203 | 83 | 0 | 1.0 | 4.0 | 0.00 | 0.00 | 0.00 | 83 | 1014.3 |
| 20260831064102 | 83 | 0 | 1.0 | 4.0 | 0.00 | 0.00 | 0.00 | 83 | 1014.2 |
| 20260831064004 | 83 | 0 | 1.0 | 4.0 | 0.00 | 0.00 | 0.00 | 83 | 1014.3 |
| 20260831063902 | 83 | 0 | 1.0 | 4.0 | 0.00 | 0.00 | 0.00 | 83 | 1014.3 |
| 20260831063803 | 83 | 0 | 1.0 | 4.0 | 0.00 | 0.00 | 0.00 | 83 | 1014.3 |
| 20260831063703 | 83 | 0 | 1.0 | 4.0 | 0.00 | 0.00 | 0.00 | 83 | 1014.3 |
| 20260831063603 | 83 | 0 | 2.0 | 4.0 | 0.00 | 0.00 | 0.00 | 83 | 1014.3 |
| 20260831063503 | 83 | 0 | 2.0 | 4.0 | 0.00 | 0.00 | 0.00 | 83 | 1014.3 |
| 20260831063403 | 83 | 0 | 2.0 | 4.0 | 0.00 | 0.00 | 0.00 | 83 | 1014.3 |
| 20260831063302 | 83 | 0 | 2.0 | 4.0 | 0.00 | 0.00 | 0.00 | 83 | 1014.3 |
| 20260831063203 | 83 | 0 | 0.0 | 4.0 | 0.00 | 0.00 | 0.00 | 83 | 1014.3 |
| 20260831063102 | 83 | 0 | 0.0 | 4.0 | 0.00 | 0.00 | 0.00 | 83 | 1014.3 |
| 20260831063003 | 83 | 0 | 0.0 | 4.0 | 0.00 | 0.00 | 0.00 | 83 | 1014.3 |
| 20260831062903 | 83 | 0 | 1.0 | 4.0 | 0.00 | 0.00 | 0.00 | 83 | 1014.3 |
| 20260831062803 | 83 | 0 | 1.0 | 4.0 | 0.00 | 0.00 | 0.00 | 83 | 1014.3 |
| 20260831062638 | 83 | 0 | 3.0 | 6.0 | 0.00 | 0.00 | 0.00 | 83 | 1014.4 |
| 20260831062532 | 83 | 0 | 2.0 | 6.0 | 0.00 | 0.00 | 0.00 | 83 | 1014.3 |
| 20260831062430 | 83 | 0 | 0.0 | 6.0 | 0.00 | 0.00 | 0.00 | 83 | 1014.3 |
| 20260831062331 | 83 | 0 | 0.0 | 6.0 | 0.00 | 0.00 | 0.00 | 83 | 1014.3 |
| 20260831062232 | 83 | 0 | 4.0 | 6.0 | 0.00 | 0.00 | 0.00 | 83 | 1014.3 |
| 20260831062132 | 83 | 0 | 4.0 | 6.0 | 0.00 | 0.00 | 0.00 | 83 | 1014.3 |
| 20260831062032 | 83 | 0 | 3.0 | 6.0 | 0.00 | 0.00 | 0.00 | 83 | 1014.4 |
| 20260831061933 | 83 | 0 | 3.0 | 6.0 | 0.00 | 0.00 | 0.00 | 83 | 1014.3 |
| 20260831061832 | 83 | 0 | 3.0 | 6.0 | 0.00 | 0.00 | 0.00 | 83 | 1014.3 |
| 20260831061716 | 83 | 0 | 3.0 | 7.0 | 0.00 | 0.00 | 0.00 | 83 | 1014.4 |
| 20260831061614 | 83 | 0 | 3.0 | 7.0 | 0.00 | 0.00 | 0.00 | 83 | 1014.3 |
| 20260831061507 | 83 | 0 | 4.0 | 7.0 | 0.00 | 0.00 | 0.00 | 83 | 1014.4 |
| 20260831061407 | 83 | 0 | 4.0 | 7.0 | 0.00 | 0.00 | 0.00 | 83 | 1014.3 |
| 20260831061305 | 83 | 0 | 3.0 | 7.0 | 0.00 | 0.00 | 0.00 | 83 | 1014.3 |
| 20260831061206 | 83 | 0 | 2.0 | 7.0 | 0.00 | 0.00 | 0.00 | 83 | 1014.3 |
| 20260831061105 | 83 | 0 | 3.0 | 7.0 | 0.00 | 0.00 | 0.00 | 83 | 1014.3 |
| 20260831061005 | 83 | 0 | 4.0 | 7.0 | 0.00 | 0.00 | 0.00 | 83 | 1014.3 |
| 20260831060906 | 83 | 0 | 4.0 | 7.0 | 0.00 | 0.00 | 0.00 | 83 | 1014.3 |
| 20260831060805 | 83 | 0 | 5.0 | 7.0 | 0.00 | 0.00 | 0.00 | 83 | 1014.3 |
| 20260831060705 | 83 | 0 | 3.0 | 5.0 | 0.00 | 0.00 | 0.00 | 83 | 1014.3 |
| 20260831060605 | 83 | 0 | 2.0 | 5.0 | 0.00 | 0.00 | 0.00 | 83 | 1014.3 |
| 20260831060507 | 83 | 0 | 2.0 | 4.0 | 0.00 | 0.00 | 0.00 | 83 | 1014.3 |
| 20260831060405 | 83 | 0 | 2.0 | 4.0 | 0.00 | 0.00 | 0.00 | 83 | 1014.3 |
| 20260831060305 | 83 | 0 | 2.0 | 4.0 | 0.00 | 0.00 | 0.00 | 83 | 1014.3 |
| 20260831060208 | 83 | 0 | 1.0 | 4.0 | 0.00 | 0.00 | 0.00 | 83 | 1014.3 |
| 20260831060107 | 83 | 0 | 0.0 | 0.0 | 0.00 | 0.00 | 0.00 | 83 | 1014.3 |
| 20260831060005 | 83 | 0 | 0.0 | 0.0 | 0.00 | 0.00 | 0.00 | 83 | 1014.3 |
| 20260831055905 | 83 | 0 | 0.0 | 0.0 | 0.00 | 0.00 | 0.00 | 83 | 1014.3 |
| 20260831055807 | 83 | 0 | 0.0 | 0.0 | 0.00 | 0.00 | 0.00 | 83 | 1014.3 |
| 20260831055705 | 83 | 0 | 0.0 | 0.0 | 0.00 | 0.00 | 0.00 | 83 | 1014.4 |
| 20260831055606 | 83 | 0 | 0.0 | 0.0 | 0.00 | 0.00 | 0.00 | 83 | 1014.3 |
| 20260831055505 | 83 | 0 | 0.0 | 0.0 | 0.00 | 0.00 | 0.00 | 83 | 1014.3 |
| 20260831055405 | 83 | 0 | 0.0 | 0.0 | 0.00 | 0.00 | 0.00 | 83 | 1014.3 |
| 20260831055306 | 83 | 0 | 0.0 | 0.0 | 0.00 | 0.00 | 0.00 | 83 | 1014.3 |
| 20260831055205 | 83 | 0 | 0.0 | 0.0 | 0.00 | 0.00 | 0.00 | 83 | 1014.4 |
| 20260831055104 | 83 | 0 | 0.0 | 0.0 | 0.00 | 0.00 | 0.00 | 83 | 1014.3 |
| 20260831055005 | 83 | 0 | 0.0 | 0.0 | 0.00 | 0.00 | 0.00 | 83 | 1014.4 |
| 20260831054905 | 83 | 0 | 0.0 | 0.0 | 0.00 | 0.00 | 0.00 | 83 | 1014.4 |
| 20260831054804 | 83 | 0 | 0.0 | 0.0 | 0.00 | 0.00 | 0.00 | 83 | 1014.4 |
| 20260831054705 | 83 | 0 | 0.0 | 0.0 | 0.00 | 0.00 | 0.00 | 83 | 1014.3 |
| 20260831054605 | 83 | 0 | 0.0 | 0.0 | 0.00 | 0.00 | 0.00 | 83 | 1014.4 |
| 20260831054505 | 83 | 0 | 0.0 | 0.0 | 0.00 | 0.00 | 0.00 | 83 | 1014.4 |
| 20260831054405 | 83 | 0 | 0.0 | 0.0 | 0.00 | 0.00 | 0.00 | 83 | 1014.4 |
| 20260831054306 | 83 | 0 | 0.0 | 0.0 | 0.00 | 0.00 | 0.00 | 82 | 1014.4 |
| 20260831054204 | 83 | 0 | 0.0 | 0.0 | 0.00 | 0.00 | 0.00 | 82 | 1014.4 |
| 20260831054105 | 83 | 0 | 0.0 | 0.0 | 0.00 | 0.00 | 0.00 | 82 | 1014.4 |
| 20260831054005 | 83 | 0 | 0.0 | 0.0 | 0.00 | 0.00 | 0.00 | 82 | 1014.4 |
| 20260831053905 | 83 | 0 | 0.0 | 2.0 | 0.00 | 0.00 | 0.00 | 82 | 1014.4 |
| 20260831053804 | 83 | 0 | 0.0 | 5.0 | 0.00 | 0.00 | 0.00 | 82 | 1014.3 |
| 20260831053705 | 83 | 0 | 0.0 | 5.0 | 0.00 | 0.00 | 0.00 | 82 | 1014.3 |
| 20260831053605 | 83 | 0 | 0.0 | 5.0 | 0.00 | 0.00 | 0.00 | 82 | 1014.4 |
| 20260831053504 | 83 | 0 | 0.0 | 5.0 | 0.00 | 0.00 | 0.00 | 82 | 1014.4 |
| 20260831053405 | 83 | 0 | 0.0 | 5.0 | 0.00 | 0.00 | 0.00 | 82 | 1014.4 |
| 20260831053305 | 83 | 0 | 0.0 | 5.0 | 0.00 | 0.00 | 0.00 | 82 | 1014.3 |
| 20260831053206 | 83 | 0 | 0.0 | 5.0 | 0.00 | 0.00 | 0.00 | 82 | 1014.3 |
| 20260831053105 | 83 | 0 | 0.0 | 5.0 | 0.00 | 0.00 | 0.00 | 82 | 1014.3 |
| 20260831053004 | 83 | 0 | 2.0 | 5.0 | 0.00 | 0.00 | 0.00 | 82 | 1014.3 |
| 20260831052905 | 83 | 0 | 3.0 | 5.0 | 0.00 | 0.00 | 0.00 | 82 | 1014.2 |
| 20260831052804 | 83 | 0 | 3.0 | 4.0 | 0.00 | 0.00 | 0.00 | 82 | 1014.3 |
| 20260831052704 | 83 | 0 | 4.0 | 4.0 | 0.00 | 0.00 | 0.00 | 82 | 1014.3 |
| 20260831052604 | 83 | 0 | 2.0 | 4.0 | 0.00 | 0.00 | 0.00 | 82 | 1014.3 |
| 20260831052505 | 83 | 0 | 2.0 | 4.0 | 0.00 | 0.00 | 0.00 | 82 | 1014.3 |
| 20260831052404 | 83 | 0 | 2.0 | 4.0 | 0.00 | 0.00 | 0.00 | 82 | 1014.3 |
| 20260831052307 | 83 | 0 | 2.0 | 4.0 | 0.00 | 0.00 | 0.00 | 82 | 1014.3 |
| 20260831052205 | 83 | 0 | 2.0 | 5.0 | 0.00 | 0.00 | 0.00 | 82 | 1014.2 |
| 20260831052104 | 83 | 0 | 2.0 | 5.0 | 0.00 | 0.00 | 0.00 | 82 | 1014.3 |
| 20260831052004 | 83 | 0 | 3.0 | 5.0 | 0.00 | 0.00 | 0.00 | 82 | 1014.2 |
| 20260831051904 | 83 | 0 | 2.0 | 5.0 | 0.00 | 0.00 | 0.00 | 82 | 1014.2 |
| 20260831051805 | 83 | 0 | 2.0 | 5.0 | 0.00 | 0.00 | 0.00 | 82 | 1014.2 |
| 20260831051705 | 83 | 0 | 2.0 | 5.0 | 0.00 | 0.00 | 0.00 | 82 | 1014.2 |
| 20260831051604 | 83 | 0 | 2.0 | 5.0 | 0.00 | 0.00 | 0.00 | 82 | 1014.2 |
| 20260831051505 | 83 | 0 | 2.0 | 5.0 | 0.00 | 0.00 | 0.00 | 82 | 1014.2 |
| 20260831051404 | 83 | 0 | 3.0 | 5.0 | 0.00 | 0.00 | 0.00 | 82 | 1014.2 |
| 20260831051306 | 83 | 0 | 2.0 | 5.0 | 0.00 | 0.00 | 0.00 | 82 | 1014.3 |
| 20260831051204 | 83 | 0 | 0.0 | 6.0 | 0.00 | 0.00 | 0.00 | 82 | 1014.2 |
| 20260831051104 | 83 | 0 | 0.0 | 6.0 | 0.00 | 0.00 | 0.00 | 82 | 1014.2 |
| 20260831051004 | 83 | 0 | 0.0 | 6.0 | 0.00 | 0.00 | 0.00 | 82 | 1014.2 |
| 20260831050903 | 83 | 0 | 1.0 | 6.0 | 0.00 | 0.00 | 0.00 | 82 | 1014.2 |
| 20260831050804 | 83 | 0 | 2.0 | 6.0 | 0.00 | 0.00 | 0.00 | 82 | 1014.2 |
| 20260831050704 | 84 | 0 | 2.0 | 6.0 | 0.00 | 0.00 | 0.00 | 82 | 1014.2 |
| 20260831050604 | 84 | 0 | 4.0 | 6.0 | 0.00 | 0.00 | 0.00 | 82 | 1014.2 |
| 20260831050504 | 84 | 0 | 4.0 | 6.0 | 0.00 | 0.00 | 0.00 | 82 | 1014.2 |
| 20260831050404 | 84 | 0 | 4.0 | 6.0 | 0.00 | 0.00 | 0.00 | 82 | 1014.2 |
| 20260831050304 | 84 | 0 | 4.0 | 6.0 | 0.00 | 0.00 | 0.00 | 82 | 1014.1 |
| 20260831050204 | 84 | 0 | 4.0 | 6.0 | 0.00 | 0.00 | 0.00 | 82 | 1014.2 |
| 20260831050104 | 84 | 0 | 3.0 | 5.0 | 0.00 | 0.00 | 0.00 | 82 | 1014.1 |
| 20260831050005 | 84 | 0 | 2.0 | 4.0 | 0.00 | 0.00 | 0.00 | 82 | 1014.0 |
| 20260831045904 | 84 | 0 | 0.0 | 4.0 | 0.00 | 0.00 | 0.00 | 82 | 1014.0 |
| 20260831045804 | 84 | 0 | 0.0 | 3.0 | 0.00 | 0.00 | 0.00 | 82 | 1014.1 |
| 20260831045702 | 84 | 0 | 0.0 | 3.0 | 0.00 | 0.00 | 0.00 | 82 | 1014.1 |
| 20260831045604 | 84 | 0 | 0.0 | 3.0 | 0.00 | 0.00 | 0.00 | 82 | 1014.0 |
| 20260831045503 | 84 | 0 | 0.0 | 3.0 | 0.00 | 0.00 | 0.00 | 82 | 1014.0 |
| 20260831045401 | 84 | 0 | 0.0 | 3.0 | 0.00 | 0.00 | 0.00 | 81 | 1014.1 |
| 20260831045306 | 84 | 0 | 2.0 | 3.0 | 0.00 | 0.00 | 0.00 | 81 | 1014.2 |
| 20260831045203 | 84 | 0 | 2.0 | 3.0 | 0.00 | 0.00 | 0.00 | 81 | 1014.1 |
| 20260831045103 | 84 | 0 | 2.0 | 3.0 | 0.00 | 0.00 | 0.00 | 81 | 1014.1 |
| 20260831045003 | 84 | 0 | 2.0 | 3.0 | 0.00 | 0.00 | 0.00 | 81 | 1014.1 |
| 20260831044903 | 0 | 0 | 2.0 | 2.0 | 0.00 | 0.00 | 0.00 | 1014.1 | |
| 20260831044803 | 0 | 0 | 2.0 | 2.0 | 0.00 | 0.00 | 0.00 | 1014.1 | |
| 20260831044704 | 0 | 0 | 2.0 | 2.0 | 0.00 | 0.00 | 0.00 | 1014.1 | |
| 20260831044604 | 84 | 0 | 2.0 | 2.0 | 0.00 | 0.00 | 0.00 | 81 | 1014.1 |
| 20260831044503 | 84 | 0 | 1.0 | 2.0 | 0.00 | 0.00 | 0.00 | 81 | 1014.1 |
| 20260831044404 | 84 | 0 | 1.0 | 5.0 | 0.00 | 0.00 | 0.00 | 81 | 1014.0 |
| 20260831044303 | 84 | 0 | 1.0 | 5.0 | 0.00 | 0.00 | 0.00 | 81 | 1014.1 |
| 20260831044204 | 84 | 0 | 1.0 | 5.0 | 0.00 | 0.00 | 0.00 | 81 | 1014.0 |
| 20260831044104 | 84 | 0 | 1.0 | 5.0 | 0.00 | 0.00 | 0.00 | 81 | 1014.1 |
| 20260831044003 | 84 | 0 | 1.0 | 5.0 | 0.00 | 0.00 | 0.00 | 81 | 1014.0 |
| 20260831043903 | 84 | 0 | 1.0 | 5.0 | 0.00 | 0.00 | 0.00 | 81 | 1014.1 |
| 20260831043803 | 84 | 0 | 1.0 | 5.0 | 0.00 | 0.00 | 0.00 | 81 | 1014.0 |
| 20260831043633 | 84 | 0 | 2.0 | 5.0 | 0.00 | 0.00 | 0.00 | 81 | 1014.1 |
| 20260831043532 | 84 | 0 | 2.0 | 5.0 | 0.00 | 0.00 | 0.00 | 81 | 1014.1 |
| 20260831043433 | 84 | 0 | 2.0 | 5.0 | 0.00 | 0.00 | 0.00 | 81 | 1014.1 |
| 20260831043332 | 84 | 0 | 2.0 | 4.0 | 0.00 | 0.00 | 0.00 | 81 | 1014.0 |
| 20260831043231 | 84 | 0 | 3.0 | 4.0 | 0.00 | 0.00 | 0.00 | 81 | 1014.1 |
| 20260831043131 | 84 | 0 | 2.0 | 4.0 | 0.00 | 0.00 | 0.00 | 81 | 1014.0 |
| 20260831043003 | 84 | 0 | 2.0 | 4.0 | 0.00 | 0.00 | 0.00 | 81 | 1014.0 |
| 20260831042903 | 84 | 0 | 2.0 | 4.0 | 0.00 | 0.00 | 0.00 | 81 | 1014.0 |
| 20260831042803 | 84 | 0 | 2.0 | 4.0 | 0.00 | 0.00 | 0.00 | 81 | 1014.0 |
| 20260831042704 | 84 | 0 | 2.0 | 4.0 | 0.00 | 0.00 | 0.00 | 81 | 1014.0 |
| 20260831042603 | 84 | 0 | 2.0 | 4.0 | 0.00 | 0.00 | 0.00 | 81 | 1014.0 |
| 20260831042504 | 84 | 0 | 2.0 | 4.0 | 0.00 | 0.00 | 0.00 | 81 | 1014.0 |
| 20260831042404 | 84 | 0 | 2.0 | 4.0 | 0.00 | 0.00 | 0.00 | 81 | 1014.0 |
| 20260831042306 | 84 | 0 | 2.0 | 4.0 | 0.00 | 0.00 | 0.00 | 81 | 1014.0 |
| 20260831042203 | 84 | 0 | 1.0 | 4.0 | 0.00 | 0.00 | 0.00 | 81 | 1013.9 |
| 20260831042102 | 84 | 0 | 0.0 | 4.0 | 0.00 | 0.00 | 0.00 | 81 | 1013.9 |
| 20260831042002 | 84 | 0 | 0.0 | 4.0 | 0.00 | 0.00 | 0.00 | 81 | 1013.9 |
| 20260831041902 | 84 | 0 | 1.0 | 4.0 | 0.00 | 0.00 | 0.00 | 81 | 1013.9 |
| 20260831041804 | 84 | 0 | 1.0 | 4.0 | 0.00 | 0.00 | 0.00 | 81 | 1013.9 |
| 20260831041702 | 84 | 0 | 1.0 | 4.0 | 0.00 | 0.00 | 0.00 | 81 | 1013.9 |
| 20260831041603 | 84 | 0 | 1.0 | 4.0 | 0.00 | 0.00 | 0.00 | 81 | 1013.9 |
| 20260831041504 | 84 | 0 | 0.0 | 5.0 | 0.00 | 0.00 | 0.00 | 81 | 1013.9 |
| 20260831041401 | 84 | 0 | 1.0 | 5.0 | 0.00 | 0.00 | 0.00 | 81 | 1013.9 |
| 20260831041302 | 84 | 0 | 0.0 | 5.0 | 0.00 | 0.00 | 0.00 | 81 | 1013.9 |
| 20260831041201 | 84 | 0 | 0.0 | 5.0 | 0.00 | 0.00 | 0.00 | 80 | 1013.9 |
| 20260831041103 | 84 | 0 | 0.0 | 5.0 | 0.00 | 0.00 | 0.00 | 81 | 1014.0 |
| 20260831041003 | 84 | 0 | 1.0 | 5.0 | 0.00 | 0.00 | 0.00 | 81 | 1014.0 |
| 20260831040902 | 84 | 0 | 1.0 | 5.0 | 0.00 | 0.00 | 0.00 | 80 | 1013.9 |
| 20260831040802 | 84 | 0 | 1.0 | 5.0 | 0.00 | 0.00 | 0.00 | 80 | 1013.9 |
| 20260831040703 | 84 | 0 | 2.0 | 5.0 | 0.00 | 0.00 | 0.00 | 80 | 1013.9 |
| 20260831040604 | 84 | 0 | 3.0 | 5.0 | 0.00 | 0.00 | 0.00 | 80 | 1013.9 |
| 20260831040502 | 84 | 0 | 3.0 | 5.0 | 0.00 | 0.00 | 0.00 | 80 | 1013.9 |
| 20260831040401 | 84 | 0 | 3.0 | 5.0 | 0.00 | 0.00 | 0.00 | 80 | 1013.9 |
| 20260831040302 | 84 | 0 | 1.0 | 5.0 | 0.00 | 0.00 | 0.00 | 80 | 1014.0 |
| 20260831040203 | 84 | 0 | 1.0 | 5.0 | 0.00 | 0.00 | 0.00 | 80 | 1014.0 |
| 20260831040002 | 84 | 0 | 2.0 | 5.0 | 0.00 | 0.00 | 0.00 | 80 | 1013.9 |
| 20260831035902 | 84 | 0 | 1.0 | 5.0 | 0.00 | 0.00 | 0.00 | 80 | 1013.9 |
| 20260831035800 | 85 | 0 | 2.0 | 5.0 | 0.00 | 0.00 | 0.00 | 80 | 1013.9 |
| 20260831035701 | 85 | 0 | 2.0 | 5.0 | 0.00 | 0.00 | 0.00 | 80 | 1013.9 |
| 20260831035603 | 85 | 0 | 1.0 | 5.0 | 0.00 | 0.00 | 0.00 | 80 | 1013.9 |
| 20260831035502 | 85 | 0 | 2.0 | 5.0 | 0.00 | 0.00 | 0.00 | 80 | 1014.0 |
| 20260831035400 | 85 | 0 | 2.0 | 5.0 | 0.00 | 0.00 | 0.00 | 80 | 1013.9 |
| 20260831035301 | 85 | 0 | 1.0 | 4.0 | 0.00 | 0.00 | 0.00 | 80 | 1013.9 |
| 20260831035200 | 85 | 0 | 0.0 | 0.0 | 0.00 | 0.00 | 0.00 | 80 | 1014.0 |
| 20260831035100 | 85 | 0 | 0.0 | 0.0 | 0.00 | 0.00 | 0.00 | 79 | 1013.9 |
| 20260831035000 | 85 | 0 | 0.0 | 0.0 | 0.00 | 0.00 | 0.00 | 79 | 1014.0 |
| 20260831034902 | 85 | 0 | 0.0 | 0.0 | 0.00 | 0.00 | 0.00 | 79 | 1013.9 |
| 20260831034802 | 85 | 0 | 0.0 | 4.0 | 0.00 | 0.00 | 0.00 | 79 | 1013.9 |
| 20260831034701 | 85 | 0 | 0.0 | 4.0 | 0.00 | 0.00 | 0.00 | 79 | 1013.9 |
| 20260831034601 | 85 | 0 | 0.0 | 4.0 | 0.00 | 0.00 | 0.00 | 79 | 1013.8 |
| 20260831034459 | 85 | 0 | 0.0 | 4.0 | 0.00 | 0.00 | 0.00 | 79 | 1013.9 |
| 20260831034402 | 85 | 0 | 0.0 | 4.0 | 0.00 | 0.00 | 0.00 | 79 | 1013.9 |
| 20260831034301 | 85 | 0 | 0.0 | 5.0 | 0.00 | 0.00 | 0.00 | 79 | 1013.9 |
| 20260831034202 | 85 | 0 | 0.0 | 5.0 | 0.00 | 0.00 | 0.00 | 79 | 1013.9 |
| 20260831034101 | 85 | 0 | 0.0 | 5.0 | 0.00 | 0.00 | 0.00 | 79 | 1013.8 |
| 20260831034002 | 85 | 0 | 1.0 | 5.0 | 0.00 | 0.00 | 0.00 | 79 | 1013.8 |
| 20260831033901 | 85 | 0 | 2.0 | 5.0 | 0.00 | 0.00 | 0.00 | 79 | 1013.8 |
| 20260831033802 | 85 | 0 | 2.0 | 5.0 | 0.00 | 0.00 | 0.00 | 79 | 1013.8 |
| 20260831033702 | 85 | 0 | 2.0 | 5.0 | 0.00 | 0.00 | 0.00 | 79 | 1013.8 |
| 20260831033600 | 85 | 0 | 2.0 | 5.0 | 0.00 | 0.00 | 0.00 | 79 | 1013.8 |
| 20260831033502 | 85 | 0 | 2.0 | 5.0 | 0.00 | 0.00 | 0.00 | 79 | 1013.8 |
| 20260831033401 | 85 | 0 | 1.0 | 5.0 | 0.00 | 0.00 | 0.00 | 79 | 1013.8 |
| 20260831033300 | 85 | 0 | 0.0 | 3.0 | 0.00 | 0.00 | 0.00 | 79 | 1013.7 |
| 20260831033201 | 85 | 0 | 0.0 | 3.0 | 0.00 | 0.00 | 0.00 | 79 | 1013.7 |
| 20260831033101 | 85 | 0 | 0.0 | 3.0 | 0.00 | 0.00 | 0.00 | 79 | 1013.7 |
| 20260831033002 | 85 | 0 | 0.0 | 3.0 | 0.00 | 0.00 | 0.00 | 79 | 1013.7 |
| 20260831032900 | 85 | 0 | 0.0 | 5.0 | 0.00 | 0.00 | 0.00 | 78 | 1013.7 |
| 20260831032801 | 85 | 0 | 1.0 | 5.0 | 0.00 | 0.00 | 0.00 | 78 | 1013.7 |
| 20260831032701 | 85 | 0 | 1.0 | 5.0 | 0.00 | 0.00 | 0.00 | 78 | 1013.7 |
| 20260831032601 | 85 | 0 | 1.0 | 5.0 | 0.00 | 0.00 | 0.00 | 78 | 1013.8 |
| 20260831032502 | 85 | 0 | 1.0 | 5.0 | 0.00 | 0.00 | 0.00 | 78 | 1013.7 |
| 20260831032402 | 85 | 0 | 1.0 | 5.0 | 0.00 | 0.00 | 0.00 | 78 | 1013.8 |
| 20260831032300 | 85 | 0 | 0.0 | 5.0 | 0.00 | 0.00 | 0.00 | 78 | 1013.8 |
| 20260831032201 | 85 | 0 | 1.0 | 5.0 | 0.00 | 0.00 | 0.00 | 78 | 1013.7 |
| 20260831032101 | 85 | 0 | 2.0 | 5.0 | 0.00 | 0.00 | 0.00 | 78 | 1013.7 |
| 20260831032000 | 85 | 0 | 3.0 | 5.0 | 0.00 | 0.00 | 0.00 | 78 | 1013.7 |
| 20260831031901 | 85 | 0 | 2.0 | 5.0 | 0.00 | 0.00 | 0.00 | 78 | 1013.7 |
| 20260831031801 | 85 | 0 | 2.0 | 4.0 | 0.00 | 0.00 | 0.00 | 78 | 1013.7 |
| 20260831031700 | 85 | 0 | 2.0 | 5.0 | 0.00 | 0.00 | 0.00 | 78 | 1013.7 |
| 20260831031603 | 85 | 0 | 1.0 | 5.0 | 0.00 | 0.00 | 0.00 | 78 | 1013.7 |
| 20260831031501 | 85 | 0 | 2.0 | 5.0 | 0.00 | 0.00 | 0.00 | 78 | 1013.7 |
| 20260831031401 | 85 | 0 | 2.0 | 5.0 | 0.00 | 0.00 | 0.00 | 78 | 1013.7 |
| 20260831031301 | 85 | 0 | 2.0 | 5.0 | 0.00 | 0.00 | 0.00 | 78 | 1013.6 |
| 20260831031200 | 85 | 0 | 1.0 | 5.0 | 0.00 | 0.00 | 0.00 | 78 | 1013.7 |
| 20260831031059 | 85 | 0 | 1.0 | 5.0 | 0.00 | 0.00 | 0.00 | 78 | 1013.6 |
| 20260831030959 | 85 | 0 | 2.0 | 5.0 | 0.00 | 0.00 | 0.00 | 78 | 1013.7 |
| 20260831030900 | 85 | 0 | 3.0 | 5.0 | 0.00 | 0.00 | 0.00 | 78 | 1013.6 |
| 20260831030801 | 85 | 0 | 2.0 | 5.0 | 0.00 | 0.00 | 0.00 | 78 | 1013.5 |
| 20260831030659 | 85 | 0 | 1.0 | 5.0 | 0.00 | 0.00 | 0.00 | 78 | 1013.6 |
| 20260831030601 | 85 | 0 | 2.0 | 6.0 | 0.00 | 0.00 | 0.00 | 78 | 1013.5 |
| 20260831030500 | 85 | 0 | 1.0 | 7.0 | 0.00 | 0.00 | 0.00 | 78 | 1013.5 |
| 20260831030400 | 85 | 0 | 2.0 | 7.0 | 0.00 | 0.00 | 0.00 | 77 | 1013.4 |
| 20260831030259 | 85 | 0 | 2.0 | 10.0 | 0.00 | 0.00 | 0.00 | 77 | 1013.4 |
| 20260831030201 | 85 | 0 | 4.0 | 10.0 | 0.00 | 0.00 | 0.00 | 77 | 1013.4 |
| 20260831030101 | 85 | 0 | 4.0 | 10.0 | 0.00 | 0.00 | 0.00 | 77 | 1013.4 |
| 20260831030000 | 85 | 0 | 4.0 | 10.0 | 0.00 | 0.00 | 0.00 | 77 | 1013.3 |
| 20260831025901 | 85 | 0 | 4.0 | 10.0 | 0.00 | 0.00 | 0.00 | 77 | 1013.3 |
| 20260831025800 | 85 | 0 | 4.0 | 10.0 | 0.00 | 0.00 | 0.00 | 77 | 1013.3 |
| 20260831025700 | 85 | 0 | 3.0 | 10.0 | 0.00 | 0.00 | 0.00 | 77 | 1013.3 |
| 20260831025559 | 85 | 0 | 4.0 | 10.0 | 0.00 | 0.00 | 0.00 | 77 | 1013.3 |
| 20260831025459 | 85 | 0 | 4.0 | 10.0 | 0.00 | 0.00 | 0.00 | 77 | 1013.3 |
| 20260831025400 | 85 | 193 | 4.0 | 10.0 | 0.00 | 0.00 | 0.00 | 77 | 1013.3 |
| 20260831025301 | 85 | 192 | 2.0 | 7.0 | 0.00 | 0.00 | 0.00 | 77 | 1013.3 |
| 20260831025200 | 86 | 192 | 2.0 | 7.0 | 0.00 | 0.00 | 0.00 | 77 | 1013.3 |
| 20260831025100 | 86 | 197 | 3.0 | 7.0 | 0.00 | 0.00 | 0.00 | 77 | 1013.2 |
| 20260831025001 | 86 | 197 | 3.0 | 7.0 | 0.00 | 0.00 | 0.00 | 77 | 1013.3 |
| 20260831024900 | 86 | 197 | 3.0 | 7.0 | 0.00 | 0.00 | 0.00 | 77 | 1013.2 |
| 20260831024800 | 86 | 193 | 3.0 | 7.0 | 0.00 | 0.00 | 0.00 | 77 | 1013.1 |
| 20260831024659 | 86 | 214 | 4.0 | 7.0 | 0.00 | 0.00 | 0.00 | 77 | 1013.2 |
| 20260831024600 | 86 | 221 | 5.0 | 7.0 | 0.00 | 0.00 | 0.00 | 77 | 1013.1 |
| 20260831024500 | 86 | 209 | 4.0 | 7.0 | 0.00 | 0.00 | 0.00 | 77 | 1013.2 |
| 20260831024400 | 86 | 209 | 3.0 | 7.0 | 0.00 | 0.00 | 0.00 | 76 | 1013.3 |
| 20260831024259 | 86 | 203 | 4.0 | 7.0 | 0.00 | 0.00 | 0.00 | 76 | 1013.2 |
| 20260831024200 | 86 | 230 | 3.0 | 7.0 | 0.00 | 0.00 | 0.00 | 76 | 1013.1 |
| 20260831024059 | 86 | 200 | 3.0 | 7.0 | 0.00 | 0.00 | 0.00 | 76 | 1013.1 |
| 20260831024001 | 86 | 199 | 4.0 | 7.0 | 0.00 | 0.00 | 0.00 | 76 | 1013.1 |
| 20260831023858 | 86 | 190 | 3.0 | 6.0 | 0.00 | 0.00 | 0.00 | 76 | 1013.1 |
| 20260831023801 | 86 | 162 | 2.0 | 3.0 | 0.00 | 0.00 | 0.00 | 76 | 1013.1 |
| 20260831023659 | 86 | 207 | 2.0 | 3.0 | 0.00 | 0.00 | 0.00 | 73 | 1013.1 |
| 20260831023600 | 86 | 185 | 3.0 | 3.0 | 0.00 | 0.00 | 0.00 | 73 | 1013.1 |
| 20260831023500 | 86 | 185 | 3.0 | 3.0 | 0.00 | 0.00 | 0.00 | 73 | 1013.1 |
| 20260831023400 | 86 | 185 | 3.0 | 3.0 | 0.00 | 0.00 | 0.00 | 73 | 1013.1 |
| 20260831023300 | 86 | 185 | 3.0 | 3.0 | 0.00 | 0.00 | 0.00 | 73 | 1013.1 |
| 20260831023200 | 0 | 0.0 | 0.0 | 0.00 | 0.00 | 0.00 | 1013.1 | ||
| 20260831023100 | 0 | 0.0 | 0.0 | 0.00 | 0.00 | 0.00 | 1013.1 | ||
| 20260831022958 | 0 | 0.0 | 0.0 | 0.00 | 0.00 | 0.00 | 1013.0 | ||
| 20260831022859 | 0 | 0.0 | 0.0 | 0.00 | 0.00 | 0.00 | 1013.0 | ||
| 20260831022758 | 0 | 0.0 | 0.0 | 0.00 | 0.00 | 0.00 | 1013.0 | ||
| 20260831022658 | 0 | 0.0 | 0.0 | 0.00 | 0.00 | 0.00 | 1013.0 | ||
| 20260831022558 | 0 | 0.0 | 0.0 | 0.00 | 0.00 | 0.00 | 1013.0 | ||
| 20260831022457 | 0 | 0.0 | 0.0 | 0.00 | 0.00 | 0.00 | 1013.0 | ||
| 20260831022356 | 0 | 0.0 | 0.0 | 0.00 | 0.00 | 0.00 | 1013.0 | ||
| 20260831022257 | 0 | 0.0 | 0.0 | 0.00 | 0.00 | 0.00 | 1012.9 | ||
| 20260831022156 | 0 | 0.0 | 0.0 | 0.00 | 0.00 | 0.00 | 1012.9 | ||
| 20260831022057 | 0 | 0.0 | 0.0 | 0.00 | 0.00 | 0.00 | 1012.9 | ||
| 20260831021954 | 0 | 0.0 | 0.0 | 0.00 | 0.00 | 0.00 | 1013.0 | ||
| 20260831021854 | 0 | 0.0 | 0.0 | 0.00 | 0.00 | 0.00 | 1013.0 | ||
| 20260831021756 | 87 | 193 | 5.0 | 7.0 | 0.00 | 0.00 | 0.00 | 73 | 1012.9 |
| 20260831021654 | 87 | 193 | 5.0 | 7.0 | 0.00 | 0.00 | 0.00 | 73 | 1012.8 |
| 20260831021533 | 87 | 193 | 5.0 | 7.0 | 0.00 | 0.00 | 0.00 | 73 | 1012.7 |
| 20260831021432 | 87 | 193 | 5.0 | 7.0 | 0.00 | 0.00 | 0.00 | 73 | 1012.8 |
| 20260831021332 | 87 | 193 | 5.0 | 7.0 | 0.00 | 0.00 | 0.00 | 73 | 1012.8 |
| 20260831021232 | 87 | 193 | 5.0 | 7.0 | 0.00 | 0.00 | 0.00 | 73 | 1012.8 |
| 20260831021132 | 87 | 193 | 5.0 | 7.0 | 0.00 | 0.00 | 0.00 | 73 | 1012.8 |
| 20260831021032 | 87 | 193 | 5.0 | 7.0 | 0.00 | 0.00 | 0.00 | 73 | 1012.8 |
| 20260831020932 | 87 | 193 | 5.0 | 7.0 | 0.00 | 0.00 | 0.00 | 73 | 1012.8 |
| 20260831020833 | 87 | 188 | 3.0 | 3.0 | 0.00 | 0.00 | 0.00 | 73 | 1012.7 |
| 20260831020732 | 0 | 0.0 | 0.0 | 0.00 | 0.00 | 0.00 | 1012.6 | ||
| 20260831020632 | 0 | 0.0 | 0.0 | 0.00 | 0.00 | 0.00 | 1012.6 | ||
| 20260831020533 | 0 | 0.0 | 0.0 | 0.00 | 0.00 | 0.00 | 1012.6 | ||
| 20260831020432 | 0 | 0.0 | 0.0 | 0.00 | 0.00 | 0.00 | 1012.6 | ||
| 20260831020332 | 0 | 0.0 | 0.0 | 0.00 | 0.00 | 0.00 | 1012.6 | ||
| 20260831020232 | 0 | 0.0 | 0.0 | 0.00 | 0.00 | 0.00 | 1012.6 | ||
| 20260831020132 | 0 | 0.0 | 0.0 | 0.00 | 0.00 | 0.00 | 1012.6 | ||
| 20260831020033 | 0 | 0.0 | 0.0 | 0.00 | 0.00 | 0.00 | 1012.5 | ||
| 20260831015931 | 0 | 0.0 | 0.0 | 0.00 | 0.00 | 0.00 | 1012.5 | ||
| 20260831015805 | 0 | 0.0 | 0.0 | 0.00 | 0.00 | 0.00 | 1012.6 | ||
| 20260831015702 | 0 | 0.0 | 0.0 | 0.00 | 0.00 | 0.00 | 1012.6 | ||
| 20260831015604 | 0 | 0.0 | 0.0 | 0.00 | 0.00 | 0.00 | 1012.5 | ||
| 20260831015504 | 0 | 0.0 | 0.0 | 0.00 | 0.00 | 0.00 | 1012.6 | ||
| 20260831015403 | 0 | 0.0 | 0.0 | 0.00 | 0.00 | 0.00 | 1012.6 | ||
| 20260831015305 | 0 | 0.0 | 0.0 | 0.00 | 0.00 | 0.00 | 1012.6 | ||
| 20260831015203 | 0 | 0.0 | 0.0 | 0.00 | 0.00 | 0.00 | 1012.6 | ||
| 20260831015103 | 0 | 0.0 | 0.0 | 0.00 | 0.00 | 0.00 | 1012.6 | ||
| 20260831015005 | 0 | 0.0 | 0.0 | 0.00 | 0.00 | 0.00 | 1012.5 | ||
| 20260831014905 | 0 | 0.0 | 0.0 | 0.00 | 0.00 | 0.00 | 1012.5 | ||
| 20260831014803 | 0 | 0.0 | 0.0 | 0.00 | 0.00 | 0.00 | 1012.5 | ||
| 20260831014704 | 0 | 0.0 | 0.0 | 0.00 | 0.00 | 0.00 | 1012.5 | ||
| 20260831014603 | 0 | 0.0 | 0.0 | 0.00 | 0.00 | 0.00 | 1012.4 | ||
| 20260831014503 | 0 | 0.0 | 0.0 | 0.00 | 0.00 | 0.00 | 1012.4 | ||
| 20260831014403 | 0 | 0.0 | 0.0 | 0.00 | 0.00 | 0.00 | 1012.4 | ||
| 20260831014303 | 0 | 0.0 | 0.0 | 0.00 | 0.00 | 0.00 | 1012.4 | ||
| 20260831014203 | 0 | 0.0 | 0.0 | 0.00 | 0.00 | 0.00 | 1012.4 | ||
| 20260831014104 | 0 | 0.0 | 0.0 | 0.00 | 0.00 | 0.00 | 1012.4 | ||
| 20260831014004 | 0 | 0.0 | 0.0 | 0.00 | 0.00 | 0.00 | 1012.4 | ||
| 20260831013902 | 88 | 189 | 2.0 | 1.0 | 0.00 | 0.00 | 0.00 | 70 | 1012.5 |
| 20260831013803 | 88 | 189 | 2.0 | 6.0 | 0.00 | 0.00 | 0.00 | 70 | 1012.5 |
| 20260831013704 | 88 | 189 | 2.0 | 6.0 | 0.00 | 0.00 | 0.00 | 70 | 1012.5 |
| 20260831013604 | 88 | 189 | 2.0 | 6.0 | 0.00 | 0.00 | 0.00 | 70 | 1012.5 |
| 20260831013504 | 88 | 189 | 2.0 | 7.0 | 0.00 | 0.00 | 0.00 | 70 | 1012.5 |
| 20260831013404 | 88 | 189 | 2.0 | 7.0 | 0.00 | 0.00 | 0.00 | 70 | 1012.5 |
| 20260831013304 | 88 | 189 | 2.0 | 7.0 | 0.00 | 0.00 | 0.00 | 70 | 1012.6 |
| 20260831013204 | 88 | 189 | 2.0 | 7.0 | 0.00 | 0.00 | 0.00 | 70 | 1012.6 |
| 20260831013104 | 88 | 189 | 2.0 | 7.0 | 0.00 | 0.00 | 0.00 | 70 | 1012.5 |
| 20260831013005 | 88 | 189 | 2.0 | 7.0 | 0.00 | 0.00 | 0.00 | 70 | 1012.5 |
| 20260831012902 | 88 | 192 | 4.0 | 7.0 | 0.00 | 0.00 | 0.00 | 70 | 1012.5 |
| 20260831012802 | 88 | 213 | 3.0 | 7.0 | 0.00 | 0.00 | 0.00 | 70 | 1012.5 |
| 20260831012702 | 88 | 0 | 5.0 | 7.0 | 0.00 | 0.00 | 0.00 | 70 | 1012.5 |
| 20260831012604 | 88 | 183 | 5.0 | 7.0 | 0.00 | 0.00 | 0.00 | 70 | 1012.4 |
| 20260831012504 | 88 | 185 | 4.0 | 7.0 | 0.00 | 0.00 | 0.00 | 69 | 1012.4 |
| 20260831012404 | 88 | 168 | 2.0 | 6.0 | 0.00 | 0.00 | 0.00 | 69 | 1012.5 |
| 20260831012306 | 88 | 169 | 2.0 | 6.0 | 0.00 | 0.00 | 0.00 | 69 | 1012.5 |
| 20260831012202 | 88 | 168 | 2.0 | 6.0 | 0.00 | 0.00 | 0.00 | 69 | 1012.5 |
| 20260831012103 | 88 | 166 | 2.0 | 6.0 | 0.00 | 0.00 | 0.00 | 69 | 1012.5 |
| 20260831012003 | 88 | 176 | 2.0 | 6.0 | 0.00 | 0.00 | 0.00 | 69 | 1012.5 |
| 20260831011904 | 88 | 178 | 2.0 | 6.0 | 0.00 | 0.00 | 0.00 | 69 | 1012.5 |
| 20260831011803 | 88 | 178 | 2.0 | 7.0 | 0.00 | 0.00 | 0.00 | 69 | 1012.5 |
| 20260831011702 | 89 | 178 | 3.0 | 7.0 | 0.00 | 0.00 | 0.00 | 69 | 1012.5 |
| 20260831011603 | 89 | 165 | 3.0 | 7.0 | 0.00 | 0.00 | 0.00 | 69 | 1012.4 |
| 20260831011502 | 89 | 159 | 3.0 | 7.0 | 0.00 | 0.00 | 0.00 | 69 | 1012.5 |
| 20260831011402 | 89 | 171 | 4.0 | 7.0 | 0.00 | 0.00 | 0.00 | 69 | 1012.5 |
| 20260831011305 | 89 | 220 | 3.0 | 7.0 | 0.00 | 0.00 | 0.00 | 68 | 1012.4 |
| 20260831011203 | 89 | 162 | 3.0 | 7.0 | 0.00 | 0.00 | 0.00 | 68 | 1012.4 |
| 20260831011103 | 89 | 172 | 3.0 | 7.0 | 0.00 | 0.00 | 0.00 | 68 | 1012.4 |
| 20260831011002 | 89 | 204 | 4.0 | 7.0 | 0.00 | 0.00 | 0.00 | 68 | 1012.4 |
| 20260831010904 | 89 | 207 | 4.0 | 7.0 | 0.00 | 0.00 | 0.00 | 68 | 1012.4 |
| 20260831010803 | 89 | 168 | 4.0 | 7.0 | 0.00 | 0.00 | 0.00 | 68 | 1012.4 |
| 20260831010701 | 89 | 199 | 4.0 | 7.0 | 0.00 | 0.00 | 0.00 | 68 | 1012.4 |
| 20260831010600 | 89 | 209 | 3.0 | 7.0 | 0.00 | 0.00 | 0.00 | 68 | 1012.4 |
| 20260831010458 | 89 | 210 | 3.0 | 7.0 | 0.00 | 0.00 | 0.00 | 67 | 1012.4 |
| 20260831010358 | 89 | 195 | 2.0 | 7.0 | 0.00 | 0.00 | 0.00 | 67 | 1012.4 |
| 20260831010245 | 89 | 207 | 2.0 | 7.0 | 0.00 | 0.00 | 0.00 | 67 | 1012.3 |
| 20260831010144 | 89 | 206 | 3.0 | 7.0 | 0.00 | 0.00 | 0.00 | 67 | 1012.3 |
| 20260831010039 | 89 | 238 | 3.0 | 10.0 | 0.00 | 0.00 | 0.00 | 67 | 1012.2 |
| 20260831005938 | 89 | 228 | 4.0 | 10.0 | 0.00 | 0.00 | 0.00 | 67 | 1012.3 |
| 20260831005839 | 89 | 228 | 5.0 | 10.0 | 0.00 | 0.00 | 0.00 | 67 | 1012.3 |
| 20260831005737 | 89 | 220 | 5.0 | 10.0 | 0.00 | 0.00 | 0.00 | 66 | 1012.4 |
| 20260831005638 | 90 | 230 | 4.0 | 10.0 | 0.00 | 0.00 | 0.00 | 66 | 1012.4 |
| 20260831005539 | 90 | 0 | 2.0 | 10.0 | 0.00 | 0.00 | 0.00 | 66 | 1012.4 |
| 20260831005437 | 90 | 0 | 2.0 | 10.0 | 0.00 | 0.00 | 0.00 | 66 | 1012.4 |
| 20260831005337 | 90 | 0 | 3.0 | 10.0 | 0.00 | 0.00 | 0.00 | 65 | 1012.3 |
| 20260831005240 | 90 | 173 | 4.0 | 10.0 | 0.00 | 0.00 | 0.00 | 65 | 1012.3 |
| 20260831005138 | 90 | 223 | 4.0 | 10.0 | 0.00 | 0.00 | 0.00 | 65 | 1012.2 |
| 20260831005038 | 90 | 165 | 4.0 | 7.0 | 0.00 | 0.00 | 0.00 | 65 | 1012.4 |
| 20260831004937 | 90 | 152 | 3.0 | 7.0 | 0.00 | 0.00 | 0.00 | 65 | 1012.3 |
| 20260831004837 | 90 | 190 | 3.0 | 7.0 | 0.00 | 0.00 | 0.00 | 65 | 1012.3 |
| 20260831004739 | 90 | 192 | 2.0 | 7.0 | 0.00 | 0.00 | 0.00 | 65 | 1012.3 |
| 20260831004638 | 90 | 199 | 1.0 | 4.0 | 0.00 | 0.00 | 0.00 | 65 | 1012.3 |
| 20260831004539 | 90 | 192 | 2.0 | 4.0 | 0.00 | 0.00 | 0.00 | 64 | 1012.2 |
| 20260831004438 | 90 | 192 | 2.0 | 5.0 | 0.00 | 0.00 | 0.00 | 64 | 1012.3 |
| 20260831004340 | 90 | 192 | 2.0 | 5.0 | 0.00 | 0.00 | 0.00 | 64 | 1012.3 |
| 20260831004238 | 90 | 192 | 2.0 | 6.0 | 0.00 | 0.00 | 0.00 | 64 | 1012.2 |
| 20260831004137 | 90 | 192 | 2.0 | 6.0 | 0.00 | 0.00 | 0.00 | 64 | 1012.3 |
| 20260831004038 | 90 | 176 | 1.0 | 6.0 | 0.00 | 0.00 | 0.00 | 64 | 1012.3 |
| 20260831003938 | 90 | 176 | 1.0 | 6.0 | 0.00 | 0.00 | 0.00 | 64 | 1012.3 |
| 20260831003839 | 90 | 176 | 1.0 | 6.0 | 0.00 | 0.00 | 0.00 | 64 | 1012.3 |
| 20260831003737 | 90 | 176 | 2.0 | 6.0 | 0.00 | 0.00 | 0.00 | 64 | 1012.3 |
| 20260831003639 | 91 | 175 | 3.0 | 6.0 | 0.00 | 0.00 | 0.00 | 64 | 1012.2 |
| 20260831003539 | 91 | 176 | 3.0 | 6.0 | 0.00 | 0.00 | 0.00 | 63 | 1012.3 |
| 20260831003437 | 91 | 179 | 3.0 | 6.0 | 0.00 | 0.00 | 0.00 | 63 | 1012.2 |
| 20260831003338 | 91 | 182 | 4.0 | 6.0 | 0.00 | 0.00 | 0.00 | 63 | 1012.3 |
| 20260831003237 | 91 | 173 | 3.0 | 6.0 | 0.00 | 0.00 | 0.00 | 63 | 1012.3 |
| 20260831003138 | 91 | 171 | 3.0 | 6.0 | 0.00 | 0.00 | 0.00 | 63 | 1012.3 |
| 20260831003038 | 91 | 172 | 3.0 | 6.0 | 0.00 | 0.00 | 0.00 | 63 | 1012.2 |
| 20260831002936 | 91 | 186 | 4.0 | 6.0 | 0.00 | 0.00 | 0.00 | 62 | 1012.3 |
| 20260831002838 | 91 | 164 | 4.0 | 6.0 | 0.00 | 0.00 | 0.00 | 62 | 1012.2 |
| 20260831002738 | 91 | 165 | 1.0 | 6.0 | 0.00 | 0.00 | 0.00 | 62 | 1012.2 |
| 20260831002637 | 91 | 138 | 1.0 | 6.0 | 0.00 | 0.00 | 0.00 | 62 | 1012.2 |
| 20260831002538 | 91 | 182 | 3.0 | 6.0 | 0.00 | 0.00 | 0.00 | 61 | 1012.2 |
| 20260831002438 | 91 | 165 | 4.0 | 7.0 | 0.00 | 0.00 | 0.00 | 61 | 1012.2 |
| 20260831002337 | 92 | 142 | 3.0 | 7.0 | 0.00 | 0.00 | 0.00 | 60 | 1012.2 |
| 20260831002238 | 92 | 142 | 3.0 | 7.0 | 0.00 | 0.00 | 0.00 | 60 | 1012.2 |
| 20260831002138 | 92 | 142 | 3.0 | 7.0 | 0.00 | 0.00 | 0.00 | 60 | 1012.2 |
| 20260831002037 | 92 | 142 | 3.0 | 7.0 | 0.00 | 0.00 | 0.00 | 60 | 1012.2 |
| 20260831001937 | 92 | 190 | 2.0 | 7.0 | 0.00 | 0.00 | 0.00 | 60 | 1012.2 |
| 20260831001837 | 92 | 188 | 2.0 | 7.0 | 0.00 | 0.00 | 0.00 | 60 | 1012.2 |
| 20260831001738 | 92 | 180 | 2.0 | 7.0 | 0.00 | 0.00 | 0.00 | 60 | 1012.1 |
| 20260831001637 | 92 | 186 | 4.0 | 7.0 | 0.00 | 0.00 | 0.00 | 60 | 1012.2 |
| 20260831001538 | 92 | 180 | 4.0 | 7.0 | 0.00 | 0.00 | 0.00 | 60 | 1012.2 |
| 20260831001438 | 92 | 190 | 4.0 | 9.0 | 0.00 | 0.00 | 0.00 | 60 | 1012.2 |
| 20260831001337 | 92 | 171 | 4.0 | 9.0 | 0.00 | 0.00 | 0.00 | 59 | 1012.2 |
| 20260831001237 | 92 | 157 | 4.0 | 9.0 | 0.00 | 0.00 | 0.00 | 59 | 1012.1 |
| 20260831001138 | 92 | 157 | 4.0 | 9.0 | 0.00 | 0.00 | 0.00 | 59 | 1012.2 |
| 20260831001038 | 92 | 157 | 4.0 | 9.0 | 0.00 | 0.00 | 0.00 | 59 | 1012.1 |
| 20260831000937 | 92 | 154 | 4.0 | 9.0 | 0.00 | 0.00 | 0.00 | 59 | 1012.2 |
| 20260831000838 | 92 | 195 | 3.0 | 9.0 | 0.00 | 0.00 | 0.00 | 58 | 1012.2 |
| 20260831000738 | 92 | 176 | 3.0 | 9.0 | 0.00 | 0.00 | 0.00 | 58 | 1012.1 |
| 20260831000636 | 92 | 179 | 4.0 | 9.0 | 0.00 | 0.00 | 0.00 | 58 | 1012.1 |
| 20260831000537 | 92 | 193 | 4.0 | 9.0 | 0.00 | 0.00 | 0.00 | 58 | 1012.2 |
| 20260831000437 | 92 | 157 | 4.0 | 9.0 | 0.00 | 0.00 | 0.00 | 58 | 1012.2 |
| 20260831000340 | 93 | 161 | 6.0 | 11.0 | 0.00 | 0.00 | 0.00 | 58 | 1012.1 |
| 20260831000237 | 93 | 203 | 5.0 | 11.0 | 0.00 | 0.00 | 0.00 | 58 | 1012.1 |
| 20260831000139 | 93 | 195 | 3.0 | 11.0 | 0.00 | 0.00 | 0.00 | 57 | 1012.1 |
| 20260831000035 | 93 | 206 | 4.0 | 11.0 | 0.00 | 0.00 | 0.00 | 57 | 1012.1 |
| 20260830235932 | 93 | 155 | 5.0 | 11.0 | 0.00 | 0.00 | 0.00 | 57 | 1012.1 |
| 20260830235832 | 93 | 216 | 6.0 | 11.0 | 0.00 | 0.00 | 0.00 | 57 | 1012.1 |
| 20260830235733 | 93 | 212 | 5.0 | 11.0 | 0.00 | 0.00 | 0.00 | 57 | 1012.1 |
| 20260830235633 | 93 | 214 | 5.0 | 11.0 | 0.00 | 0.00 | 0.00 | 57 | 1012.1 |
| 20260830235531 | 93 | 202 | 5.0 | 11.0 | 0.00 | 0.00 | 0.00 | 57 | 1012.1 |
| 20260830235433 | 93 | 220 | 5.0 | 11.0 | 0.00 | 0.00 | 0.00 | 57 | 1012.0 |
| 20260830235332 | 93 | 188 | 5.0 | 10.0 | 0.00 | 0.00 | 0.00 | 57 | 1012.0 |
| 20260830235232 | 93 | 196 | 5.0 | 10.0 | 0.00 | 0.00 | 0.00 | 57 | 1012.1 |
| 20260830235131 | 93 | 185 | 5.0 | 9.0 | 0.00 | 0.00 | 0.00 | 57 | 1012.1 |
| 20260830235033 | 93 | 183 | 4.0 | 9.0 | 0.00 | 0.00 | 0.00 | 57 | 1012.1 |
| 20260830234931 | 93 | 144 | 4.0 | 9.0 | 0.00 | 0.00 | 0.00 | 57 | 1012.1 |
| 20260830234832 | 0 | 0.0 | 0.0 | 0.00 | 0.00 | 0.00 | 1012.0 | ||
| 20260830234732 | 0 | 0.0 | 0.0 | 0.00 | 0.00 | 0.00 | 1012.0 | ||
| 20260830234632 | 0 | 0.0 | 0.0 | 0.00 | 0.00 | 0.00 | 1012.0 | ||
| 20260830234532 | 0 | 0.0 | 0.0 | 0.00 | 0.00 | 0.00 | 1012.0 | ||
| 20260830234432 | 0 | 0.0 | 0.0 | 0.00 | 0.00 | 0.00 | 1012.0 | ||
| 20260830234332 | 0 | 0.0 | 0.0 | 0.00 | 0.00 | 0.00 | 1012.0 | ||
| 20260830234232 | 0 | 0.0 | 0.0 | 0.00 | 0.00 | 0.00 | 1011.9 | ||
| 20260830234132 | 0 | 0.0 | 0.0 | 0.00 | 0.00 | 0.00 | 1012.0 | ||
| 20260830234033 | 0 | 0.0 | 0.0 | 0.00 | 0.00 | 0.00 | 1012.0 | ||
| 20260830233932 | 0 | 0.0 | 0.0 | 0.00 | 0.00 | 0.00 | 1011.9 | ||
| 20260830233832 | 0 | 0.0 | 0.0 | 0.00 | 0.00 | 0.00 | 1011.9 | ||
| 20260830233732 | 0 | 0.0 | 0.0 | 0.00 | 0.00 | 0.00 | 1011.9 | ||
| 20260830233632 | 0 | 0.0 | 0.0 | 0.00 | 0.00 | 0.00 | 1011.9 | ||
| 20260830233531 | 0 | 0.0 | 0.0 | 0.00 | 0.00 | 0.00 | 1011.9 | ||
| 20260830233431 | 94 | 197 | 4.0 | 5.0 | 0.00 | 0.00 | 0.00 | 56 | 1011.9 |
| 20260830233331 | 94 | 197 | 4.0 | 5.0 | 0.00 | 0.00 | 0.00 | 56 | 1011.9 |
| 20260830233232 | 94 | 197 | 4.0 | 5.0 | 0.00 | 0.00 | 0.00 | 56 | 1011.9 |
| 20260830233129 | 94 | 197 | 4.0 | 5.0 | 0.00 | 0.00 | 0.00 | 56 | 1011.9 |
| 20260830233029 | 94 | 197 | 4.0 | 5.0 | 0.00 | 0.00 | 0.00 | 56 | 1011.9 |
| 20260830232929 | 94 | 197 | 4.0 | 5.0 | 0.00 | 0.00 | 0.00 | 56 | 1011.8 |
| 20260830232829 | 94 | 197 | 4.0 | 5.0 | 0.00 | 0.00 | 0.00 | 56 | 1011.8 |
| 20260830232729 | 94 | 197 | 4.0 | 5.0 | 0.00 | 0.00 | 0.00 | 56 | 1011.8 |
| 20260830232629 | 94 | 197 | 4.0 | 5.0 | 0.00 | 0.00 | 0.00 | 56 | 1011.9 |
| 20260830232528 | 94 | 209 | 4.0 | 5.0 | 0.00 | 0.00 | 0.00 | 56 | 1011.8 |
| 20260830232429 | 0 | 0.0 | 0.0 | 0.00 | 0.00 | 0.00 | 1011.9 | ||
| 20260830232329 | 0 | 0.0 | 0.0 | 0.00 | 0.00 | 0.00 | 1011.8 | ||
| 20260830232228 | 0 | 0.0 | 0.0 | 0.00 | 0.00 | 0.00 | 1011.9 | ||
| 20260830232128 | 0 | 0.0 | 0.0 | 0.00 | 0.00 | 0.00 | 1011.9 | ||
| 20260830232028 | 0 | 0.0 | 0.0 | 0.00 | 0.00 | 0.00 | 1011.9 | ||
| 20260830231927 | 0 | 0.0 | 0.0 | 0.00 | 0.00 | 0.00 | 1011.8 | ||
| 20260830231828 | 0 | 0.0 | 0.0 | 0.00 | 0.00 | 0.00 | 1011.9 | ||
| 20260830231725 | 0 | 0.0 | 0.0 | 0.00 | 0.00 | 0.00 | 1011.9 | ||
| 20260830231625 | 0 | 0.0 | 0.0 | 0.00 | 0.00 | 0.00 | 1011.9 | ||
| 20260830231526 | 0 | 0.0 | 0.0 | 0.00 | 0.00 | 0.00 | 1011.9 | ||
| 20260830231425 | 0 | 0.0 | 0.0 | 0.00 | 0.00 | 0.00 | 1011.8 | ||
| 20260830231325 | 0 | 0.0 | 0.0 | 0.00 | 0.00 | 0.00 | 1011.9 | ||
| 20260830231223 | 0 | 0.0 | 0.0 | 0.00 | 0.00 | 0.00 | 1011.8 |